JBU1833 KBOS-KSFO
Flight info
| Callsign | JBU1833 |
|---|---|
| Flight time | 6h 5m |
| Altitude | 30000 |
| Route | HYLND7 HYLND BUGSY LETAK BURWA/N0455F320 OTNIK SSM KP09I WINDD ABR/N0450F340 GCC RICCO BOY MLD TRAKY BAM LLC LEGGS BDEGA4 |
| Aircraft | A321/M-SDE3FGHIRWY/LB1 |
Departure
| Time | 2026-05-07 13:17 |
|---|---|
| Airport | Boston Logan International Airport (KBOS) |
Arrival
| Time | 2026-05-07 19:22 |
|---|---|
| Airport | San Francisco International Airport (KSFO) |
| Time | Latitude | Longitude | Altitude | Speed | Heading |
|---|---|---|---|---|---|
| 2026-05-07 12:14 | 42.36565 | -71.01663 | 26 ft | 0 kts | 336° |
| 2026-05-07 13:04 | 42.36564 | -71.01663 | 25 ft | 1 kts | 336° |
| 2026-05-07 13:04 | 42.36543 | -71.01650 | 29 ft | 4 kts | 336° |
| 2026-05-07 13:04 | 42.36518 | -71.01635 | 30 ft | 4 kts | 336° |
| 2026-05-07 13:04 | 42.36498 | -71.01623 | 29 ft | 4 kts | 344° |
| 2026-05-07 13:05 | 42.36473 | -71.01620 | 29 ft | 4 kts | 17° |
| 2026-05-07 13:05 | 42.36455 | -71.01636 | 26 ft | 3 kts | 60° |
| 2026-05-07 13:05 | 42.36457 | -71.01612 | 28 ft | 4 kts | 103° |
| 2026-05-07 13:05 | 42.36445 | -71.01586 | 28 ft | 4 kts | 121° |
| 2026-05-07 13:06 | 42.36431 | -71.01555 | 28 ft | 4 kts | 121° |
| 2026-05-07 13:06 | 42.36417 | -71.01524 | 28 ft | 4 kts | 121° |
| 2026-05-07 13:06 | 42.36406 | -71.01499 | 27 ft | 0 kts | 121° |
| 2026-05-07 13:10 | 42.36397 | -71.01478 | 25 ft | 5 kts | 120° |
| 2026-05-07 13:10 | 42.36377 | -71.01415 | 29 ft | 8 kts | 111° |
| 2026-05-07 13:10 | 42.36348 | -71.01344 | 27 ft | 10 kts | 121° |
| 2026-05-07 13:10 | 42.36299 | -71.01235 | 27 ft | 15 kts | 122° |
| 2026-05-07 13:11 | 42.36253 | -71.01128 | 27 ft | 13 kts | 115° |
| 2026-05-07 13:11 | 42.36217 | -71.01019 | 28 ft | 13 kts | 114° |
| 2026-05-07 13:11 | 42.36182 | -71.00912 | 27 ft | 12 kts | 114° |
| 2026-05-07 13:11 | 42.36147 | -71.00807 | 26 ft | 12 kts | 114° |
| 2026-05-07 13:12 | 42.36117 | -71.00707 | 30 ft | 12 kts | 109° |
| 2026-05-07 13:12 | 42.36085 | -71.00581 | 27 ft | 16 kts | 108° |
| 2026-05-07 13:12 | 42.36050 | -71.00443 | 27 ft | 15 kts | 109° |
| 2026-05-07 13:12 | 42.36015 | -71.00307 | 25 ft | 15 kts | 109° |
| 2026-05-07 13:13 | 42.35981 | -71.00174 | 27 ft | 15 kts | 109° |
| 2026-05-07 13:13 | 42.35935 | -71.00055 | 28 ft | 14 kts | 130° |
| 2026-05-07 13:13 | 42.35865 | -70.99959 | 29 ft | 14 kts | 134° |
| 2026-05-07 13:13 | 42.35795 | -70.99867 | 25 ft | 14 kts | 136° |
| 2026-05-07 13:14 | 42.35727 | -70.99777 | 27 ft | 14 kts | 135° |
| 2026-05-07 13:14 | 42.35660 | -70.99687 | 27 ft | 13 kts | 135° |
| 2026-05-07 13:14 | 42.35595 | -70.99599 | 26 ft | 13 kts | 135° |
| 2026-05-07 13:14 | 42.35542 | -70.99529 | 27 ft | 4 kts | 140° |
| 2026-05-07 13:15 | 42.35535 | -70.99521 | 26 ft | 0 kts | 139° |
| 2026-05-07 13:15 | 42.35522 | -70.99505 | 28 ft | 7 kts | 136° |
| 2026-05-07 13:15 | 42.35488 | -70.99438 | 25 ft | 9 kts | 104° |
| 2026-05-07 13:15 | 42.35498 | -70.99355 | 25 ft | 9 kts | 75° |
| 2026-05-07 13:16 | 42.35516 | -70.99277 | 25 ft | 7 kts | 70° |
| 2026-05-07 13:16 | 42.35539 | -70.99267 | 27 ft | 2 kts | 320° |
| 2026-05-07 13:16 | 42.35547 | -70.99277 | 25 ft | 2 kts | 315° |
| 2026-05-07 13:16 | 42.35655 | -70.99422 | 25 ft | 55 kts | 315° |
| 2026-05-07 13:17 | 42.36090 | -71.00003 | 24 ft | 118 kts | 315° |
| 2026-05-07 13:17 | 42.36802 | -71.00954 | 44 ft | 166 kts | 314° |
| 2026-05-07 13:17 | 42.37614 | -71.02025 | 874 ft | 155 kts | 316° |
| 2026-05-07 13:17 | 42.38365 | -71.03091 | 1569 ft | 157 kts | 303° |
| 2026-05-07 13:18 | 42.38945 | -71.04400 | 1802 ft | 170 kts | 300° |
| 2026-05-07 13:18 | 42.39570 | -71.05853 | 1941 ft | 187 kts | 300° |
| 2026-05-07 13:18 | 42.40254 | -71.07452 | 2079 ft | 205 kts | 300° |
| 2026-05-07 13:18 | 42.41027 | -71.09183 | 2236 ft | 223 kts | 308° |
| 2026-05-07 13:19 | 42.42288 | -71.10448 | 2463 ft | 241 kts | 336° |
| 2026-05-07 13:19 | 42.43854 | -71.11290 | 3011 ft | 245 kts | 336° |
| 2026-05-07 13:19 | 42.45444 | -71.12147 | 3638 ft | 247 kts | 336° |
| 2026-05-07 13:19 | 42.47051 | -71.13017 | 4231 ft | 250 kts | 336° |
| 2026-05-07 13:20 | 42.48679 | -71.13900 | 4819 ft | 254 kts | 336° |
| 2026-05-07 13:20 | 42.50327 | -71.14797 | 5359 ft | 258 kts | 335° |
| 2026-05-07 13:20 | 42.52018 | -71.15692 | 5891 ft | 263 kts | 336° |
| 2026-05-07 13:20 | 42.53762 | -71.16515 | 6420 ft | 268 kts | 337° |
| 2026-05-07 13:21 | 42.55547 | -71.17317 | 6925 ft | 272 kts | 336° |
| 2026-05-07 13:21 | 42.57358 | -71.18119 | 7451 ft | 275 kts | 335° |
| 2026-05-07 13:21 | 42.58567 | -71.18656 | 7807 ft | 277 kts | 335° |
| 2026-05-07 13:21 | 42.60408 | -71.19478 | 8341 ft | 280 kts | 333° |
| 2026-05-07 13:22 | 42.62265 | -71.20316 | 8875 ft | 283 kts | 332° |
| 2026-05-07 13:22 | 42.64142 | -71.21169 | 9401 ft | 286 kts | 331° |
| 2026-05-07 13:22 | 42.66036 | -71.22033 | 9923 ft | 288 kts | 330° |
| 2026-05-07 13:22 | 42.67954 | -71.22910 | 10316 ft | 297 kts | 330° |
| 2026-05-07 13:23 | 42.69960 | -71.23842 | 10437 ft | 313 kts | 331° |
| 2026-05-07 13:23 | 42.72077 | -71.24829 | 10559 ft | 330 kts | 331° |
| 2026-05-07 13:23 | 42.74302 | -71.25859 | 10690 ft | 345 kts | 332° |
| 2026-05-07 13:23 | 42.76591 | -71.27018 | 10802 ft | 354 kts | 326° |
| 2026-05-07 13:24 | 42.78721 | -71.28722 | 10942 ft | 356 kts | 314° |
| 2026-05-07 13:24 | 42.80543 | -71.30968 | 11289 ft | 353 kts | 305° |
| 2026-05-07 13:24 | 42.82254 | -71.33389 | 11765 ft | 356 kts | 305° |
| 2026-05-07 13:24 | 42.83982 | -71.35826 | 12267 ft | 359 kts | 305° |
| 2026-05-07 13:25 | 42.85723 | -71.38275 | 12776 ft | 361 kts | 304° |
| 2026-05-07 13:25 | 42.87476 | -71.40742 | 13270 ft | 363 kts | 304° |
| 2026-05-07 13:25 | 42.89238 | -71.43227 | 13766 ft | 366 kts | 304° |
| 2026-05-07 13:25 | 42.90991 | -71.45698 | 14193 ft | 369 kts | 304° |
| 2026-05-07 13:26 | 42.92785 | -71.48229 | 14621 ft | 371 kts | 304° |
| 2026-05-07 13:26 | 42.94584 | -71.50771 | 15052 ft | 374 kts | 304° |
| 2026-05-07 13:26 | 42.96394 | -71.53332 | 15510 ft | 376 kts | 304° |
| 2026-05-07 13:26 | 42.98215 | -71.55910 | 15962 ft | 378 kts | 304° |
| 2026-05-07 13:27 | 43.00044 | -71.58506 | 16417 ft | 381 kts | 305° |
| 2026-05-07 13:27 | 43.01886 | -71.61123 | 16855 ft | 383 kts | 305° |
| 2026-05-07 13:27 | 43.03737 | -71.63758 | 17282 ft | 386 kts | 305° |
| 2026-05-07 13:27 | 43.05603 | -71.66418 | 17707 ft | 388 kts | 305° |
| 2026-05-07 13:28 | 43.07476 | -71.69088 | 18097 ft | 391 kts | 305° |
| 2026-05-07 13:28 | 43.09367 | -71.71783 | 18433 ft | 393 kts | 305° |
| 2026-05-07 13:28 | 43.11265 | -71.74484 | 18791 ft | 394 kts | 305° |
| 2026-05-07 13:28 | 43.13172 | -71.77197 | 19160 ft | 395 kts | 305° |
| 2026-05-07 13:29 | 43.15082 | -71.79918 | 19544 ft | 397 kts | 304° |
| 2026-05-07 13:29 | 43.16995 | -71.82651 | 19915 ft | 398 kts | 304° |
| 2026-05-07 13:29 | 43.18908 | -71.85392 | 20270 ft | 398 kts | 304° |
| 2026-05-07 13:29 | 43.20826 | -71.88143 | 20617 ft | 400 kts | 304° |
| 2026-05-07 13:30 | 43.22748 | -71.90902 | 20972 ft | 401 kts | 304° |
| 2026-05-07 13:30 | 43.24676 | -71.93675 | 21335 ft | 401 kts | 304° |
| 2026-05-07 13:30 | 43.26579 | -71.96412 | 21663 ft | 402 kts | 304° |
| 2026-05-07 13:30 | 43.28512 | -71.99191 | 22001 ft | 403 kts | 304° |
| 2026-05-07 13:31 | 43.30450 | -72.01977 | 22332 ft | 404 kts | 304° |
| 2026-05-07 13:31 | 43.32390 | -72.04771 | 22660 ft | 405 kts | 304° |
| 2026-05-07 13:31 | 43.34335 | -72.07579 | 22927 ft | 406 kts | 304° |
| 2026-05-07 13:31 | 43.36288 | -72.10401 | 23257 ft | 407 kts | 304° |
| 2026-05-07 13:32 | 43.38242 | -72.13228 | 23567 ft | 409 kts | 303° |
| 2026-05-07 13:32 | 43.40201 | -72.16063 | 23848 ft | 409 kts | 303° |
| 2026-05-07 13:32 | 43.42159 | -72.18899 | 24131 ft | 409 kts | 303° |
| 2026-05-07 13:32 | 43.44121 | -72.21744 | 24416 ft | 409 kts | 303° |
| 2026-05-07 13:33 | 43.46080 | -72.24589 | 24705 ft | 409 kts | 303° |
| 2026-05-07 13:33 | 43.48045 | -72.27444 | 25015 ft | 410 kts | 302° |
| 2026-05-07 13:33 | 43.50004 | -72.30291 | 25336 ft | 409 kts | 302° |
| 2026-05-07 13:33 | 43.51964 | -72.33143 | 25636 ft | 409 kts | 302° |
| 2026-05-07 13:34 | 43.53919 | -72.35995 | 25911 ft | 410 kts | 302° |
| 2026-05-07 13:34 | 43.57811 | -72.41688 | 26641 ft | 405 kts | 301° |
| 2026-05-07 13:34 | 43.59739 | -72.44502 | 27024 ft | 402 kts | 301° |
| 2026-05-07 13:35 | 43.61628 | -72.47260 | 27425 ft | 399 kts | 301° |
| 2026-05-07 13:35 | 43.63530 | -72.50040 | 27787 ft | 397 kts | 300° |
| 2026-05-07 13:35 | 43.65421 | -72.52807 | 28194 ft | 395 kts | 300° |
| 2026-05-07 13:35 | 43.67305 | -72.55571 | 28501 ft | 395 kts | 300° |
| 2026-05-07 13:36 | 43.69180 | -72.58327 | 28830 ft | 393 kts | 300° |
| 2026-05-07 13:36 | 43.71056 | -72.61084 | 29078 ft | 393 kts | 300° |
| 2026-05-07 13:36 | 43.72927 | -72.63844 | 29341 ft | 393 kts | 300° |
| 2026-05-07 13:36 | 43.74792 | -72.66601 | 29642 ft | 392 kts | 300° |
| 2026-05-07 13:37 | 43.76658 | -72.69357 | 29955 ft | 391 kts | 299° |
| 2026-05-07 13:37 | 43.78517 | -72.72103 | 30217 ft | 390 kts | 299° |
| 2026-05-07 13:37 | 43.80370 | -72.74842 | 30451 ft | 390 kts | 299° |
| 2026-05-07 13:37 | 43.82222 | -72.77580 | 30688 ft | 389 kts | 299° |
| 2026-05-07 13:38 | 43.84073 | -72.80320 | 30943 ft | 389 kts | 299° |
| 2026-05-07 13:38 | 43.85924 | -72.83068 | 31158 ft | 389 kts | 299° |
| 2026-05-07 13:38 | 43.87769 | -72.85813 | 31435 ft | 389 kts | 299° |
| 2026-05-07 13:38 | 43.89614 | -72.88555 | 31680 ft | 389 kts | 299° |
| 2026-05-07 13:39 | 43.91466 | -72.91301 | 31833 ft | 390 kts | 300° |
| 2026-05-07 13:39 | 43.95199 | -72.96857 | 31880 ft | 396 kts | 300° |
| 2026-05-07 13:40 | 43.98960 | -73.02474 | 31879 ft | 398 kts | 300° |
| 2026-05-07 13:40 | 44.02713 | -73.08083 | 31891 ft | 398 kts | 300° |
| 2026-05-07 13:41 | 44.06484 | -73.13725 | 31939 ft | 398 kts | 300° |
| 2026-05-07 13:41 | 44.10246 | -73.19355 | 31875 ft | 396 kts | 300° |
| 2026-05-07 13:42 | 44.13991 | -73.24987 | 31884 ft | 397 kts | 300° |
| 2026-05-07 13:42 | 44.17742 | -73.30655 | 31889 ft | 399 kts | 300° |
| 2026-05-07 13:43 | 44.21514 | -73.36365 | 31878 ft | 401 kts | 300° |
| 2026-05-07 13:43 | 44.25267 | -73.42040 | 31898 ft | 402 kts | 301° |
| 2026-05-07 13:44 | 44.29060 | -73.47783 | 31899 ft | 402 kts | 301° |
| 2026-05-07 13:44 | 44.32849 | -73.53532 | 31897 ft | 402 kts | 301° |
| 2026-05-07 13:45 | 44.36634 | -73.59297 | 31888 ft | 403 kts | 301° |
| 2026-05-07 13:45 | 44.40423 | -73.65087 | 31915 ft | 405 kts | 301° |
| 2026-05-07 13:46 | 44.44229 | -73.70903 | 31882 ft | 406 kts | 302° |
| 2026-05-07 13:46 | 44.48058 | -73.76768 | 31864 ft | 409 kts | 302° |
| 2026-05-07 13:47 | 44.51904 | -73.82663 | 31861 ft | 411 kts | 302° |
| 2026-05-07 13:47 | 44.55761 | -73.88587 | 31863 ft | 412 kts | 302° |
| 2026-05-07 13:48 | 44.59622 | -73.94544 | 31871 ft | 413 kts | 302° |
| 2026-05-07 13:48 | 44.63482 | -74.00514 | 31892 ft | 414 kts | 302° |
| 2026-05-07 13:49 | 44.67360 | -74.06524 | 31892 ft | 416 kts | 303° |
| 2026-05-07 13:49 | 44.71235 | -74.12581 | 31887 ft | 414 kts | 299° |
| 2026-05-07 13:49 | 44.72830 | -74.15878 | 31886 ft | 403 kts | 290° |
| 2026-05-07 13:50 | 44.74046 | -74.19393 | 31882 ft | 399 kts | 287° |
| 2026-05-07 13:50 | 44.76393 | -74.26421 | 31885 ft | 399 kts | 288° |
| 2026-05-07 13:51 | 44.78760 | -74.33497 | 31888 ft | 400 kts | 288° |
| 2026-05-07 13:51 | 44.81121 | -74.40582 | 31902 ft | 400 kts | 287° |
| 2026-05-07 13:52 | 44.83478 | -74.47687 | 31907 ft | 400 kts | 287° |
| 2026-05-07 13:52 | 44.85831 | -74.54799 | 31913 ft | 400 kts | 287° |
| 2026-05-07 13:53 | 44.88179 | -74.61910 | 31939 ft | 401 kts | 288° |
| 2026-05-07 13:53 | 44.90534 | -74.69055 | 31930 ft | 401 kts | 288° |
| 2026-05-07 13:54 | 44.92881 | -74.76202 | 31926 ft | 402 kts | 288° |
| 2026-05-07 13:54 | 44.95228 | -74.83355 | 31923 ft | 402 kts | 288° |
| 2026-05-07 13:55 | 44.97580 | -74.90526 | 31938 ft | 403 kts | 288° |
| 2026-05-07 13:55 | 44.99923 | -74.97719 | 31935 ft | 404 kts | 288° |
| 2026-05-07 13:56 | 45.02270 | -75.04947 | 31909 ft | 405 kts | 288° |
| 2026-05-07 13:56 | 45.04622 | -75.12206 | 31897 ft | 406 kts | 288° |
| 2026-05-07 13:57 | 45.06957 | -75.19442 | 31900 ft | 407 kts | 288° |
| 2026-05-07 13:57 | 45.09310 | -75.26734 | 31896 ft | 407 kts | 288° |
| 2026-05-07 13:58 | 45.11658 | -75.34036 | 31916 ft | 408 kts | 288° |
| 2026-05-07 13:58 | 45.14002 | -75.41361 | 31919 ft | 408 kts | 288° |
| 2026-05-07 13:59 | 45.16348 | -75.48701 | 31904 ft | 409 kts | 288° |
| 2026-05-07 13:59 | 45.18689 | -75.56045 | 31899 ft | 409 kts | 288° |
| 2026-05-07 14:00 | 45.21031 | -75.63394 | 31917 ft | 409 kts | 288° |
| 2026-05-07 14:00 | 45.23359 | -75.70759 | 31912 ft | 409 kts | 288° |
| 2026-05-07 14:01 | 45.25685 | -75.78132 | 31908 ft | 409 kts | 288° |
| 2026-05-07 14:01 | 45.28010 | -75.85512 | 31904 ft | 409 kts | 288° |
| 2026-05-07 14:02 | 45.30316 | -75.92848 | 31918 ft | 410 kts | 288° |
| 2026-05-07 14:02 | 45.32644 | -76.00259 | 31913 ft | 411 kts | 289° |
| 2026-05-07 14:03 | 45.34973 | -76.07690 | 31900 ft | 412 kts | 289° |
| 2026-05-07 14:03 | 45.37293 | -76.15144 | 31896 ft | 413 kts | 289° |
| 2026-05-07 14:04 | 45.39614 | -76.22619 | 31898 ft | 413 kts | 289° |
| 2026-05-07 14:04 | 45.41390 | -76.30312 | 31906 ft | 409 kts | 282° |
| 2026-05-07 14:05 | 45.42952 | -76.38099 | 31921 ft | 410 kts | 282° |
| 2026-05-07 14:05 | 45.44532 | -76.45898 | 31911 ft | 410 kts | 282° |
| 2026-05-07 14:06 | 45.46110 | -76.53720 | 31909 ft | 411 kts | 282° |
| 2026-05-07 14:06 | 45.47673 | -76.61549 | 31911 ft | 411 kts | 282° |
| 2026-05-07 14:07 | 45.49239 | -76.69393 | 31925 ft | 411 kts | 282° |
| 2026-05-07 14:07 | 45.50539 | -76.75918 | 31920 ft | 412 kts | 282° |
| 2026-05-07 14:08 | 45.52103 | -76.83780 | 31922 ft | 412 kts | 282° |
| 2026-05-07 14:08 | 45.53653 | -76.91652 | 31922 ft | 412 kts | 282° |
| 2026-05-07 14:09 | 45.55194 | -76.99533 | 31933 ft | 412 kts | 282° |
| 2026-05-07 14:09 | 45.56737 | -77.07419 | 31935 ft | 413 kts | 282° |
| 2026-05-07 14:10 | 45.58281 | -77.15317 | 31937 ft | 413 kts | 282° |
| 2026-05-07 14:10 | 45.59811 | -77.23225 | 31935 ft | 413 kts | 282° |
| 2026-05-07 14:11 | 45.61328 | -77.31094 | 31930 ft | 413 kts | 282° |
| 2026-05-07 14:11 | 45.62856 | -77.39012 | 31929 ft | 413 kts | 282° |
| 2026-05-07 14:12 | 45.64375 | -77.46932 | 31940 ft | 414 kts | 282° |
| 2026-05-07 14:12 | 45.65886 | -77.54867 | 31928 ft | 414 kts | 282° |
| 2026-05-07 14:13 | 45.67395 | -77.62814 | 31922 ft | 414 kts | 282° |
| 2026-05-07 14:13 | 45.68902 | -77.70766 | 31924 ft | 414 kts | 282° |
| 2026-05-07 14:14 | 45.70403 | -77.78732 | 31924 ft | 415 kts | 282° |
| 2026-05-07 14:14 | 45.71897 | -77.86706 | 31928 ft | 415 kts | 282° |
| 2026-05-07 14:15 | 45.73379 | -77.94642 | 31943 ft | 416 kts | 282° |
| 2026-05-07 14:15 | 45.74875 | -78.02647 | 31936 ft | 416 kts | 282° |
| 2026-05-07 14:16 | 45.76362 | -78.10672 | 31932 ft | 417 kts | 282° |
| 2026-05-07 14:16 | 45.77834 | -78.18700 | 31940 ft | 417 kts | 282° |
| 2026-05-07 14:17 | 45.79306 | -78.26743 | 31937 ft | 417 kts | 282° |
| 2026-05-07 14:17 | 45.80778 | -78.34795 | 31940 ft | 417 kts | 282° |
| 2026-05-07 14:18 | 45.82246 | -78.42847 | 31936 ft | 417 kts | 282° |
| 2026-05-07 14:18 | 45.83715 | -78.50907 | 31936 ft | 417 kts | 282° |
| 2026-05-07 14:19 | 45.85169 | -78.58973 | 31941 ft | 417 kts | 282° |
| 2026-05-07 14:19 | 45.86602 | -78.66978 | 31941 ft | 417 kts | 282° |
| 2026-05-07 14:20 | 45.88052 | -78.75090 | 31939 ft | 417 kts | 282° |
| 2026-05-07 14:20 | 45.89479 | -78.83101 | 31936 ft | 417 kts | 282° |
| 2026-05-07 14:21 | 45.90920 | -78.91224 | 31948 ft | 417 kts | 282° |
| 2026-05-07 14:21 | 45.92345 | -78.99306 | 31942 ft | 418 kts | 282° |
| 2026-05-07 14:22 | 45.93755 | -79.07342 | 31946 ft | 418 kts | 282° |
| 2026-05-07 14:22 | 45.95177 | -79.15444 | 31943 ft | 418 kts | 282° |
| 2026-05-07 14:23 | 45.96593 | -79.23554 | 31951 ft | 418 kts | 282° |
| 2026-05-07 14:23 | 45.98006 | -79.31666 | 31955 ft | 419 kts | 282° |
| 2026-05-07 14:24 | 45.99404 | -79.39798 | 31956 ft | 419 kts | 282° |
| 2026-05-07 14:24 | 46.00795 | -79.47939 | 31954 ft | 419 kts | 282° |
| 2026-05-07 14:25 | 46.02182 | -79.56085 | 31959 ft | 419 kts | 282° |
| 2026-05-07 14:25 | 46.03569 | -79.64227 | 31960 ft | 419 kts | 282° |
| 2026-05-07 14:26 | 46.04951 | -79.72390 | 31966 ft | 420 kts | 282° |
| 2026-05-07 14:26 | 46.06312 | -79.80507 | 31965 ft | 420 kts | 282° |
| 2026-05-07 14:27 | 46.07690 | -79.88691 | 31966 ft | 421 kts | 282° |
| 2026-05-07 14:27 | 46.09063 | -79.96890 | 31963 ft | 421 kts | 282° |
| 2026-05-07 14:28 | 46.10426 | -80.05099 | 31972 ft | 421 kts | 282° |
| 2026-05-07 14:28 | 46.11784 | -80.13315 | 31970 ft | 422 kts | 282° |
| 2026-05-07 14:29 | 46.13131 | -80.21547 | 31956 ft | 422 kts | 282° |
| 2026-05-07 14:29 | 46.14488 | -80.29791 | 31967 ft | 423 kts | 282° |
| 2026-05-07 14:30 | 46.15838 | -80.38040 | 31959 ft | 423 kts | 282° |
| 2026-05-07 14:30 | 46.17175 | -80.46308 | 31974 ft | 423 kts | 282° |
| 2026-05-07 14:31 | 46.18504 | -80.54591 | 31952 ft | 424 kts | 282° |
| 2026-05-07 14:31 | 46.19451 | -80.62990 | 31949 ft | 424 kts | 276° |
| 2026-05-07 14:32 | 46.20148 | -80.71457 | 31952 ft | 425 kts | 276° |
| 2026-05-07 14:32 | 46.20832 | -80.79886 | 31952 ft | 426 kts | 276° |
| 2026-05-07 14:33 | 46.21518 | -80.88379 | 31952 ft | 426 kts | 276° |
| 2026-05-07 14:33 | 46.22201 | -80.96889 | 31953 ft | 426 kts | 276° |
| 2026-05-07 14:34 | 46.22872 | -81.05398 | 31960 ft | 427 kts | 276° |
| 2026-05-07 14:34 | 46.23540 | -81.13919 | 31961 ft | 427 kts | 276° |
| 2026-05-07 14:35 | 46.24206 | -81.22443 | 31969 ft | 427 kts | 276° |
| 2026-05-07 14:35 | 46.24870 | -81.30985 | 31954 ft | 428 kts | 276° |
| 2026-05-07 14:36 | 46.25518 | -81.39529 | 31965 ft | 428 kts | 276° |
| 2026-05-07 14:36 | 46.26164 | -81.48086 | 31970 ft | 428 kts | 276° |
| 2026-05-07 14:37 | 46.26798 | -81.56645 | 31972 ft | 428 kts | 276° |
| 2026-05-07 14:37 | 46.27744 | -81.69441 | 31966 ft | 429 kts | 276° |
| 2026-05-07 14:38 | 46.28376 | -81.78014 | 31970 ft | 429 kts | 275° |
| 2026-05-07 14:38 | 46.28997 | -81.86583 | 31965 ft | 429 kts | 275° |
| 2026-05-07 14:39 | 46.29609 | -81.95172 | 31973 ft | 429 kts | 275° |
| 2026-05-07 14:39 | 46.30212 | -82.03752 | 31969 ft | 429 kts | 275° |
| 2026-05-07 14:40 | 46.30815 | -82.12352 | 31963 ft | 430 kts | 275° |
| 2026-05-07 14:40 | 46.31408 | -82.20960 | 31971 ft | 430 kts | 275° |
| 2026-05-07 14:41 | 46.31993 | -82.29583 | 31971 ft | 431 kts | 275° |
| 2026-05-07 14:41 | 46.32576 | -82.38212 | 31969 ft | 431 kts | 275° |
| 2026-05-07 14:42 | 46.33152 | -82.46792 | 31970 ft | 431 kts | 275° |
| 2026-05-07 14:42 | 46.33723 | -82.55439 | 31981 ft | 432 kts | 275° |
| 2026-05-07 14:43 | 46.34278 | -82.64088 | 31975 ft | 432 kts | 275° |
| 2026-05-07 14:43 | 46.34833 | -82.72741 | 31977 ft | 432 kts | 275° |
| 2026-05-07 14:44 | 46.35392 | -82.81407 | 31987 ft | 432 kts | 275° |
| 2026-05-07 14:44 | 46.35945 | -82.90074 | 31981 ft | 432 kts | 275° |
| 2026-05-07 14:45 | 46.36485 | -82.98749 | 31977 ft | 433 kts | 275° |
| 2026-05-07 14:45 | 46.37014 | -83.07423 | 31987 ft | 433 kts | 275° |
| 2026-05-07 14:46 | 46.37542 | -83.16105 | 31977 ft | 433 kts | 275° |
| 2026-05-07 14:46 | 46.38062 | -83.24800 | 31975 ft | 433 kts | 275° |
| 2026-05-07 14:47 | 46.38572 | -83.33433 | 31982 ft | 433 kts | 275° |
| 2026-05-07 14:47 | 46.39081 | -83.42122 | 31976 ft | 433 kts | 275° |
| 2026-05-07 14:48 | 46.39579 | -83.50831 | 31974 ft | 433 kts | 275° |
| 2026-05-07 14:48 | 46.40069 | -83.59528 | 31972 ft | 433 kts | 275° |
| 2026-05-07 14:49 | 46.40486 | -83.68234 | 31970 ft | 433 kts | 272° |
| 2026-05-07 14:49 | 46.40613 | -83.76968 | 31967 ft | 434 kts | 270° |
| 2026-05-07 14:50 | 46.40661 | -83.85714 | 31981 ft | 434 kts | 271° |
| 2026-05-07 14:50 | 46.40751 | -83.94449 | 31965 ft | 434 kts | 271° |
| 2026-05-07 14:51 | 46.40870 | -84.03194 | 31967 ft | 433 kts | 271° |
| 2026-05-07 14:51 | 46.40991 | -84.11870 | 31968 ft | 433 kts | 271° |
| 2026-05-07 14:52 | 46.41101 | -84.20604 | 31966 ft | 433 kts | 271° |
| 2026-05-07 14:52 | 46.41196 | -84.29337 | 31973 ft | 433 kts | 271° |
| 2026-05-07 14:53 | 46.41398 | -84.38065 | 31966 ft | 433 kts | 273° |
| 2026-05-07 14:53 | 46.41825 | -84.46779 | 31964 ft | 433 kts | 274° |
| 2026-05-07 14:54 | 46.42275 | -84.55487 | 31970 ft | 433 kts | 274° |
| 2026-05-07 14:54 | 46.42664 | -84.64212 | 31971 ft | 433 kts | 273° |
| 2026-05-07 14:55 | 46.42955 | -84.71468 | 31969 ft | 433 kts | 273° |
| 2026-05-07 14:55 | 46.43311 | -84.80188 | 31984 ft | 434 kts | 273° |
| 2026-05-07 14:56 | 46.43664 | -84.88915 | 31977 ft | 434 kts | 273° |
| 2026-05-07 14:56 | 46.44004 | -84.97650 | 31981 ft | 434 kts | 273° |
| 2026-05-07 14:57 | 46.44342 | -85.06397 | 31974 ft | 434 kts | 273° |
| 2026-05-07 14:57 | 46.44680 | -85.15146 | 31981 ft | 434 kts | 273° |
| 2026-05-07 14:58 | 46.45007 | -85.23903 | 31970 ft | 435 kts | 273° |
| 2026-05-07 14:58 | 46.45331 | -85.32597 | 31978 ft | 435 kts | 273° |
| 2026-05-07 14:59 | 46.45643 | -85.41408 | 31980 ft | 435 kts | 273° |
| 2026-05-07 14:59 | 46.45940 | -85.50102 | 31978 ft | 435 kts | 273° |
| 2026-05-07 15:00 | 46.46239 | -85.58861 | 31976 ft | 435 kts | 273° |
| 2026-05-07 15:00 | 46.46540 | -85.67618 | 31977 ft | 435 kts | 273° |
| 2026-05-07 15:01 | 46.46825 | -85.76371 | 31978 ft | 435 kts | 272° |
| 2026-05-07 15:01 | 46.47097 | -85.85148 | 31982 ft | 435 kts | 272° |
| 2026-05-07 15:02 | 46.47376 | -85.93903 | 31977 ft | 435 kts | 272° |
| 2026-05-07 15:02 | 46.47648 | -86.02613 | 31974 ft | 435 kts | 272° |
| 2026-05-07 15:03 | 46.47905 | -86.11387 | 31974 ft | 435 kts | 272° |
| 2026-05-07 15:03 | 46.48153 | -86.20155 | 31977 ft | 435 kts | 272° |
| 2026-05-07 15:04 | 46.48402 | -86.28931 | 31977 ft | 435 kts | 272° |
| 2026-05-07 15:04 | 46.48638 | -86.37710 | 31981 ft | 435 kts | 272° |
| 2026-05-07 15:05 | 46.48869 | -86.46497 | 31971 ft | 435 kts | 272° |
| 2026-05-07 15:05 | 46.49102 | -86.55277 | 31974 ft | 436 kts | 272° |
| 2026-05-07 15:06 | 46.49331 | -86.64066 | 31976 ft | 436 kts | 272° |
| 2026-05-07 15:06 | 46.49544 | -86.72851 | 31978 ft | 436 kts | 272° |
| 2026-05-07 15:07 | 46.49751 | -86.81637 | 31977 ft | 436 kts | 272° |
| 2026-05-07 15:07 | 46.49947 | -86.90430 | 31979 ft | 436 kts | 272° |
| 2026-05-07 15:08 | 46.50137 | -86.99224 | 31982 ft | 436 kts | 272° |
| 2026-05-07 15:08 | 46.50325 | -87.08022 | 31983 ft | 436 kts | 272° |
| 2026-05-07 15:09 | 46.50505 | -87.16765 | 31983 ft | 436 kts | 272° |
| 2026-05-07 15:09 | 46.50674 | -87.25563 | 31986 ft | 436 kts | 272° |
| 2026-05-07 15:10 | 46.50833 | -87.34368 | 31982 ft | 436 kts | 272° |
| 2026-05-07 15:10 | 46.50991 | -87.43168 | 31978 ft | 436 kts | 272° |
| 2026-05-07 15:11 | 46.51148 | -87.51973 | 31978 ft | 436 kts | 272° |
| 2026-05-07 15:11 | 46.51293 | -87.60780 | 31973 ft | 436 kts | 272° |
| 2026-05-07 15:12 | 46.51433 | -87.69530 | 31974 ft | 436 kts | 271° |
| 2026-05-07 15:12 | 46.51563 | -87.78324 | 31976 ft | 435 kts | 271° |
| 2026-05-07 15:13 | 46.51686 | -87.87116 | 31974 ft | 435 kts | 271° |
| 2026-05-07 15:13 | 46.51810 | -87.95901 | 31974 ft | 435 kts | 271° |
| 2026-05-07 15:14 | 46.51925 | -88.04693 | 31975 ft | 435 kts | 271° |
| 2026-05-07 15:14 | 46.52029 | -88.13475 | 31977 ft | 435 kts | 271° |
| 2026-05-07 15:15 | 46.52123 | -88.22262 | 31972 ft | 435 kts | 271° |
| 2026-05-07 15:15 | 46.52210 | -88.31046 | 31974 ft | 435 kts | 271° |
| 2026-05-07 15:16 | 46.52292 | -88.39777 | 31977 ft | 435 kts | 271° |
| 2026-05-07 15:16 | 46.52377 | -88.48554 | 31978 ft | 435 kts | 271° |
| 2026-05-07 15:17 | 46.52456 | -88.57339 | 31983 ft | 435 kts | 271° |
| 2026-05-07 15:17 | 46.52513 | -88.66121 | 31982 ft | 434 kts | 271° |
| 2026-05-07 15:18 | 46.52569 | -88.74890 | 31989 ft | 434 kts | 271° |
| 2026-05-07 15:18 | 46.52624 | -88.83668 | 31982 ft | 434 kts | 271° |
| 2026-05-07 15:19 | 46.52669 | -88.92378 | 31988 ft | 434 kts | 271° |
| 2026-05-07 15:19 | 46.52708 | -89.01139 | 31990 ft | 434 kts | 271° |
| 2026-05-07 15:20 | 46.52745 | -89.09903 | 31991 ft | 434 kts | 271° |
| 2026-05-07 15:20 | 46.52767 | -89.18674 | 31993 ft | 434 kts | 271° |
| 2026-05-07 15:21 | 46.52776 | -89.27423 | 31991 ft | 433 kts | 271° |
| 2026-05-07 15:21 | 46.52786 | -89.36181 | 31992 ft | 433 kts | 271° |
| 2026-05-07 15:22 | 46.52797 | -89.44929 | 31997 ft | 433 kts | 271° |
| 2026-05-07 15:22 | 46.52795 | -89.53668 | 31997 ft | 433 kts | 270° |
| 2026-05-07 15:23 | 46.52783 | -89.62405 | 31997 ft | 433 kts | 270° |
| 2026-05-07 15:23 | 46.52768 | -89.71145 | 31997 ft | 433 kts | 270° |
| 2026-05-07 15:24 | 46.52751 | -89.79886 | 31999 ft | 433 kts | 270° |
| 2026-05-07 15:24 | 46.52724 | -89.88630 | 31998 ft | 433 kts | 270° |
| 2026-05-07 15:25 | 46.52684 | -89.97368 | 31994 ft | 433 kts | 270° |
| 2026-05-07 15:25 | 46.52643 | -90.06103 | 31969 ft | 432 kts | 270° |
| 2026-05-07 15:26 | 46.52592 | -90.14833 | 31972 ft | 432 kts | 270° |
| 2026-05-07 15:26 | 46.52535 | -90.23500 | 31973 ft | 432 kts | 270° |
| 2026-05-07 15:27 | 46.52479 | -90.32217 | 31976 ft | 432 kts | 270° |
| 2026-05-07 15:27 | 46.52415 | -90.40937 | 31973 ft | 432 kts | 270° |
| 2026-05-07 15:28 | 46.52344 | -90.49653 | 31982 ft | 431 kts | 270° |
| 2026-05-07 15:28 | 46.52258 | -90.58369 | 31984 ft | 431 kts | 270° |
| 2026-05-07 15:29 | 46.52160 | -90.67079 | 31979 ft | 431 kts | 270° |
| 2026-05-07 15:29 | 46.52066 | -90.75785 | 31974 ft | 431 kts | 270° |
| 2026-05-07 15:30 | 46.51972 | -90.84478 | 31967 ft | 431 kts | 270° |
| 2026-05-07 15:30 | 46.51868 | -90.93167 | 31971 ft | 430 kts | 270° |
| 2026-05-07 15:31 | 46.51757 | -91.01845 | 31999 ft | 430 kts | 270° |
| 2026-05-07 15:31 | 46.51629 | -91.10469 | 31998 ft | 430 kts | 270° |
| 2026-05-07 15:32 | 46.51498 | -91.19147 | 31997 ft | 429 kts | 270° |
| 2026-05-07 15:32 | 46.51369 | -91.27809 | 31989 ft | 429 kts | 270° |
| 2026-05-07 15:33 | 46.51230 | -91.36464 | 31995 ft | 428 kts | 270° |
| 2026-05-07 15:33 | 46.51089 | -91.45114 | 31994 ft | 428 kts | 270° |
| 2026-05-07 15:34 | 46.50937 | -91.53747 | 31993 ft | 428 kts | 270° |
| 2026-05-07 15:34 | 46.50776 | -91.62383 | 31984 ft | 428 kts | 270° |
| 2026-05-07 15:35 | 46.50608 | -91.71011 | 31990 ft | 427 kts | 270° |
| 2026-05-07 15:35 | 46.50438 | -91.79571 | 31993 ft | 427 kts | 270° |
| 2026-05-07 15:36 | 46.50257 | -91.88176 | 31981 ft | 427 kts | 270° |
| 2026-05-07 15:36 | 46.50066 | -91.96781 | 31978 ft | 426 kts | 270° |
| 2026-05-07 15:37 | 46.49335 | -92.05333 | 31966 ft | 428 kts | 263° |
| 2026-05-07 15:37 | 46.48264 | -92.13845 | 31973 ft | 428 kts | 263° |
| 2026-05-07 15:38 | 46.47197 | -92.22348 | 31976 ft | 428 kts | 263° |
| 2026-05-07 15:38 | 46.46121 | -92.30840 | 31981 ft | 428 kts | 262° |
| 2026-05-07 15:39 | 46.45032 | -92.39331 | 31974 ft | 428 kts | 262° |
| 2026-05-07 15:39 | 46.43946 | -92.47770 | 31969 ft | 428 kts | 263° |
| 2026-05-07 15:40 | 46.42854 | -92.56246 | 31975 ft | 428 kts | 263° |
| 2026-05-07 15:40 | 46.41756 | -92.64722 | 31975 ft | 428 kts | 263° |
| 2026-05-07 15:41 | 46.40648 | -92.73194 | 31976 ft | 428 kts | 263° |
| 2026-05-07 15:41 | 46.39530 | -92.81672 | 31968 ft | 428 kts | 263° |
| 2026-05-07 15:42 | 46.38416 | -92.90131 | 31978 ft | 428 kts | 263° |
| 2026-05-07 15:42 | 46.37292 | -92.98586 | 31980 ft | 428 kts | 263° |
| 2026-05-07 15:43 | 46.36161 | -93.07046 | 31989 ft | 428 kts | 263° |
| 2026-05-07 15:43 | 46.35023 | -93.15496 | 31991 ft | 428 kts | 263° |
| 2026-05-07 15:44 | 46.33884 | -93.23891 | 31970 ft | 428 kts | 263° |
| 2026-05-07 15:44 | 46.32732 | -93.32347 | 31977 ft | 428 kts | 263° |
| 2026-05-07 15:45 | 46.31762 | -93.39423 | 31970 ft | 428 kts | 263° |
| 2026-05-07 15:45 | 46.30599 | -93.47820 | 31982 ft | 428 kts | 263° |
| 2026-05-07 15:46 | 46.28847 | -93.60486 | 31990 ft | 428 kts | 263° |
| 2026-05-07 15:47 | 46.27668 | -93.68917 | 32001 ft | 428 kts | 263° |
| 2026-05-07 15:47 | 46.26477 | -93.77342 | 31994 ft | 428 kts | 263° |
| 2026-05-07 15:48 | 46.25285 | -93.85769 | 31991 ft | 428 kts | 263° |
| 2026-05-07 15:48 | 46.24094 | -93.94192 | 31987 ft | 428 kts | 263° |
| 2026-05-07 15:49 | 46.22894 | -94.02611 | 31951 ft | 428 kts | 263° |
| 2026-05-07 15:49 | 46.21681 | -94.11035 | 31964 ft | 428 kts | 263° |
| 2026-05-07 15:50 | 46.20464 | -94.19455 | 31951 ft | 428 kts | 263° |
| 2026-05-07 15:50 | 46.19241 | -94.27879 | 31954 ft | 428 kts | 263° |
| 2026-05-07 15:51 | 46.18007 | -94.36289 | 31956 ft | 429 kts | 263° |
| 2026-05-07 15:51 | 46.16764 | -94.44697 | 31934 ft | 429 kts | 264° |
| 2026-05-07 15:52 | 46.15519 | -94.53111 | 31938 ft | 429 kts | 263° |
| 2026-05-07 15:52 | 46.14269 | -94.61528 | 31949 ft | 429 kts | 263° |
| 2026-05-07 15:53 | 46.13023 | -94.69893 | 31975 ft | 429 kts | 263° |
| 2026-05-07 15:53 | 46.11757 | -94.78306 | 31940 ft | 429 kts | 264° |
| 2026-05-07 15:54 | 46.10620 | -94.86732 | 31958 ft | 427 kts | 266° |
| 2026-05-07 15:54 | 46.09697 | -94.95178 | 31969 ft | 426 kts | 267° |
| 2026-05-07 15:55 | 46.08793 | -95.03619 | 31976 ft | 427 kts | 267° |
| 2026-05-07 15:55 | 46.07831 | -95.12062 | 31990 ft | 427 kts | 266° |
| 2026-05-07 15:56 | 46.06832 | -95.20495 | 31962 ft | 427 kts | 266° |
| 2026-05-07 15:56 | 46.05824 | -95.28921 | 31980 ft | 427 kts | 266° |
| 2026-05-07 15:57 | 46.04830 | -95.37343 | 31988 ft | 426 kts | 267° |
| 2026-05-07 15:57 | 46.03836 | -95.45710 | 31974 ft | 426 kts | 266° |
| 2026-05-07 15:58 | 46.02829 | -95.54113 | 31989 ft | 426 kts | 266° |
| 2026-05-07 15:58 | 46.01822 | -95.62505 | 31976 ft | 425 kts | 267° |
| 2026-05-07 15:59 | 46.00811 | -95.70890 | 31999 ft | 425 kts | 267° |
| 2026-05-07 15:59 | 45.99788 | -95.79257 | 32002 ft | 425 kts | 267° |
| 2026-05-07 16:00 | 45.98758 | -95.87620 | 32001 ft | 425 kts | 266° |
| 2026-05-07 16:00 | 45.97711 | -95.96000 | 32278 ft | 426 kts | 267° |
| 2026-05-07 16:00 | 45.97190 | -96.00182 | 32538 ft | 425 kts | 267° |
| 2026-05-07 16:01 | 45.96668 | -96.04372 | 32787 ft | 425 kts | 267° |
| 2026-05-07 16:01 | 45.96150 | -96.08550 | 33014 ft | 425 kts | 267° |
| 2026-05-07 16:01 | 45.95630 | -96.12727 | 33233 ft | 425 kts | 267° |
| 2026-05-07 16:01 | 45.95106 | -96.16898 | 33452 ft | 425 kts | 267° |
| 2026-05-07 16:02 | 45.94580 | -96.21077 | 33668 ft | 425 kts | 267° |
| 2026-05-07 16:02 | 45.94054 | -96.25247 | 33886 ft | 425 kts | 267° |
| 2026-05-07 16:02 | 45.93524 | -96.29430 | 33975 ft | 425 kts | 267° |
| 2026-05-07 16:03 | 45.92456 | -96.37774 | 33986 ft | 424 kts | 267° |
| 2026-05-07 16:03 | 45.91382 | -96.46089 | 33992 ft | 423 kts | 267° |
| 2026-05-07 16:04 | 45.90322 | -96.54346 | 33988 ft | 423 kts | 267° |
| 2026-05-07 16:04 | 45.89239 | -96.62655 | 33981 ft | 423 kts | 267° |
| 2026-05-07 16:05 | 45.88151 | -96.70965 | 33981 ft | 424 kts | 267° |
| 2026-05-07 16:05 | 45.87067 | -96.79274 | 33973 ft | 423 kts | 268° |
| 2026-05-07 16:06 | 45.85979 | -96.87573 | 33991 ft | 423 kts | 268° |
| 2026-05-07 16:06 | 45.84869 | -96.95863 | 33997 ft | 423 kts | 268° |
| 2026-05-07 16:07 | 45.83757 | -97.04146 | 33996 ft | 423 kts | 268° |
| 2026-05-07 16:07 | 45.82639 | -97.12419 | 33945 ft | 422 kts | 268° |
| 2026-05-07 16:08 | 45.81515 | -97.20674 | 33980 ft | 422 kts | 268° |
| 2026-05-07 16:08 | 45.80395 | -97.28923 | 33991 ft | 421 kts | 268° |
| 2026-05-07 16:09 | 45.79288 | -97.37111 | 33996 ft | 421 kts | 268° |
| 2026-05-07 16:09 | 45.78151 | -97.45348 | 33997 ft | 421 kts | 268° |
| 2026-05-07 16:10 | 45.77004 | -97.53575 | 33987 ft | 421 kts | 268° |
| 2026-05-07 16:10 | 45.75865 | -97.61801 | 33981 ft | 421 kts | 268° |
| 2026-05-07 16:11 | 45.74714 | -97.70024 | 33983 ft | 421 kts | 268° |
| 2026-05-07 16:11 | 45.73554 | -97.78239 | 33977 ft | 421 kts | 268° |
| 2026-05-07 16:12 | 45.72385 | -97.86451 | 33931 ft | 421 kts | 268° |
| 2026-05-07 16:12 | 45.71222 | -97.94651 | 33956 ft | 421 kts | 268° |
| 2026-05-07 16:13 | 45.70057 | -98.02855 | 33983 ft | 421 kts | 267° |
| 2026-05-07 16:13 | 45.68877 | -98.11056 | 33991 ft | 421 kts | 267° |
| 2026-05-07 16:14 | 45.67688 | -98.19256 | 33985 ft | 421 kts | 267° |
| 2026-05-07 16:14 | 45.66491 | -98.27443 | 33954 ft | 420 kts | 267° |
| 2026-05-07 16:15 | 45.65291 | -98.35619 | 33983 ft | 420 kts | 267° |
| 2026-05-07 16:15 | 45.64095 | -98.43779 | 33994 ft | 419 kts | 267° |
| 2026-05-07 16:16 | 45.62902 | -98.51886 | 33987 ft | 419 kts | 266° |
| 2026-05-07 16:16 | 45.61687 | -98.60077 | 33989 ft | 419 kts | 266° |
| 2026-05-07 16:17 | 45.60472 | -98.68211 | 33957 ft | 418 kts | 266° |
| 2026-05-07 16:17 | 45.59252 | -98.76336 | 33968 ft | 419 kts | 266° |
| 2026-05-07 16:18 | 45.58021 | -98.84457 | 33979 ft | 419 kts | 266° |
| 2026-05-07 16:18 | 45.56803 | -98.92529 | 33972 ft | 419 kts | 266° |
| 2026-05-07 16:19 | 45.55578 | -99.00645 | 33920 ft | 418 kts | 266° |
| 2026-05-07 16:19 | 45.54340 | -99.08761 | 33933 ft | 419 kts | 266° |
| 2026-05-07 16:20 | 45.53086 | -99.16880 | 33943 ft | 419 kts | 265° |
| 2026-05-07 16:20 | 45.51820 | -99.24997 | 33947 ft | 419 kts | 265° |
| 2026-05-07 16:21 | 45.50557 | -99.33113 | 33952 ft | 419 kts | 265° |
| 2026-05-07 16:21 | 45.49288 | -99.41224 | 33922 ft | 420 kts | 265° |
| 2026-05-07 16:22 | 45.48016 | -99.49354 | 33943 ft | 420 kts | 265° |
| 2026-05-07 16:22 | 45.46741 | -99.57477 | 33947 ft | 420 kts | 265° |
| 2026-05-07 16:23 | 45.45455 | -99.65600 | 33952 ft | 420 kts | 265° |
| 2026-05-07 16:23 | 45.44154 | -99.73717 | 33951 ft | 420 kts | 265° |
| 2026-05-07 16:24 | 45.42848 | -99.81827 | 33922 ft | 420 kts | 264° |
| 2026-05-07 16:24 | 45.41545 | -99.89945 | 33933 ft | 421 kts | 264° |
| 2026-05-07 16:25 | 45.40233 | -99.98064 | 33944 ft | 421 kts | 264° |
| 2026-05-07 16:25 | 45.38918 | -100.06134 | 33948 ft | 421 kts | 264° |
| 2026-05-07 16:26 | 45.37596 | -100.14246 | 33906 ft | 421 kts | 263° |
| 2026-05-07 16:26 | 45.36264 | -100.22363 | 33922 ft | 421 kts | 263° |
| 2026-05-07 16:27 | 45.34928 | -100.30479 | 33938 ft | 422 kts | 263° |
| 2026-05-07 16:27 | 45.33584 | -100.38602 | 33956 ft | 422 kts | 263° |
| 2026-05-07 16:28 | 45.32229 | -100.46725 | 33961 ft | 422 kts | 263° |
| 2026-05-07 16:28 | 45.30875 | -100.54838 | 33924 ft | 422 kts | 263° |
| 2026-05-07 16:29 | 45.29504 | -100.62960 | 33938 ft | 423 kts | 263° |
| 2026-05-07 16:29 | 45.28131 | -100.71072 | 33946 ft | 422 kts | 263° |
| 2026-05-07 16:30 | 45.26994 | -100.77816 | 33953 ft | 422 kts | 263° |
| 2026-05-07 16:30 | 45.25617 | -100.85924 | 33905 ft | 422 kts | 262° |
| 2026-05-07 16:31 | 45.24228 | -100.94030 | 33925 ft | 423 kts | 262° |
| 2026-05-07 16:31 | 45.22829 | -101.02148 | 33937 ft | 423 kts | 262° |
| 2026-05-07 16:32 | 45.21429 | -101.10264 | 33946 ft | 424 kts | 262° |
| 2026-05-07 16:32 | 45.20026 | -101.18392 | 33959 ft | 424 kts | 262° |
| 2026-05-07 16:33 | 45.18604 | -101.26511 | 33963 ft | 424 kts | 261° |
| 2026-05-07 16:33 | 45.17187 | -101.34626 | 33960 ft | 424 kts | 262° |
| 2026-05-07 16:34 | 45.15769 | -101.42728 | 33965 ft | 424 kts | 261° |
| 2026-05-07 16:34 | 45.14343 | -101.50779 | 33962 ft | 424 kts | 261° |
| 2026-05-07 16:35 | 45.12898 | -101.58881 | 33947 ft | 424 kts | 261° |
| 2026-05-07 16:35 | 45.11456 | -101.66981 | 33926 ft | 425 kts | 260° |
| 2026-05-07 16:36 | 45.10004 | -101.75115 | 33939 ft | 427 kts | 260° |
| 2026-05-07 16:36 | 45.08541 | -101.83260 | 33943 ft | 427 kts | 260° |
| 2026-05-07 16:37 | 45.07069 | -101.91429 | 33949 ft | 428 kts | 260° |
| 2026-05-07 16:37 | 45.05580 | -101.99589 | 33939 ft | 429 kts | 259° |
| 2026-05-07 16:38 | 45.04088 | -102.07759 | 33942 ft | 430 kts | 259° |
| 2026-05-07 16:38 | 45.02594 | -102.15945 | 33950 ft | 430 kts | 259° |
| 2026-05-07 16:39 | 45.01096 | -102.24136 | 33955 ft | 431 kts | 259° |
| 2026-05-07 16:39 | 44.99584 | -102.32328 | 33942 ft | 431 kts | 259° |
| 2026-05-07 16:40 | 44.98062 | -102.40517 | 33946 ft | 431 kts | 258° |
| 2026-05-07 16:40 | 44.96534 | -102.48665 | 33948 ft | 432 kts | 258° |
| 2026-05-07 16:41 | 44.95002 | -102.56869 | 33955 ft | 432 kts | 258° |
| 2026-05-07 16:41 | 44.93464 | -102.65073 | 33953 ft | 432 kts | 258° |
| 2026-05-07 16:42 | 44.91924 | -102.73277 | 33946 ft | 432 kts | 258° |
| 2026-05-07 16:42 | 44.90371 | -102.81474 | 33949 ft | 433 kts | 258° |
| 2026-05-07 16:43 | 44.88808 | -102.89674 | 33946 ft | 433 kts | 258° |
| 2026-05-07 16:43 | 44.87235 | -102.97872 | 33949 ft | 433 kts | 258° |
| 2026-05-07 16:44 | 44.85655 | -103.06068 | 33934 ft | 433 kts | 257° |
| 2026-05-07 16:44 | 44.84081 | -103.14259 | 33941 ft | 433 kts | 257° |
| 2026-05-07 16:45 | 44.82497 | -103.22451 | 33949 ft | 433 kts | 257° |
| 2026-05-07 16:45 | 44.80905 | -103.30642 | 33951 ft | 433 kts | 257° |
| 2026-05-07 16:46 | 44.79318 | -103.38770 | 33955 ft | 433 kts | 257° |
| 2026-05-07 16:46 | 44.77716 | -103.46943 | 33941 ft | 433 kts | 257° |
| 2026-05-07 16:47 | 44.76111 | -103.55095 | 33955 ft | 432 kts | 257° |
| 2026-05-07 16:47 | 44.74504 | -103.63235 | 33969 ft | 431 kts | 257° |
| 2026-05-07 16:48 | 44.72888 | -103.71365 | 33966 ft | 431 kts | 257° |
| 2026-05-07 16:48 | 44.71265 | -103.79470 | 33969 ft | 430 kts | 258° |
| 2026-05-07 16:49 | 44.69649 | -103.87551 | 33972 ft | 429 kts | 258° |
| 2026-05-07 16:49 | 44.68034 | -103.95610 | 33979 ft | 428 kts | 258° |
| 2026-05-07 16:50 | 44.66409 | -104.03648 | 33961 ft | 427 kts | 257° |
| 2026-05-07 16:50 | 44.64783 | -104.11670 | 33938 ft | 427 kts | 258° |
| 2026-05-07 16:51 | 44.63169 | -104.19617 | 33946 ft | 426 kts | 258° |
| 2026-05-07 16:51 | 44.61538 | -104.27591 | 33947 ft | 425 kts | 258° |
| 2026-05-07 16:52 | 44.59904 | -104.35550 | 33936 ft | 424 kts | 258° |
| 2026-05-07 16:52 | 44.58270 | -104.43491 | 33933 ft | 424 kts | 258° |
| 2026-05-07 16:53 | 44.56632 | -104.51428 | 33916 ft | 423 kts | 258° |
| 2026-05-07 16:53 | 44.54989 | -104.59350 | 33920 ft | 423 kts | 257° |
| 2026-05-07 16:54 | 44.53342 | -104.67263 | 33919 ft | 423 kts | 257° |
| 2026-05-07 16:54 | 44.51682 | -104.75176 | 33923 ft | 423 kts | 257° |
| 2026-05-07 16:55 | 44.50019 | -104.83077 | 33926 ft | 423 kts | 257° |
| 2026-05-07 16:55 | 44.48355 | -104.90979 | 33930 ft | 423 kts | 257° |
| 2026-05-07 16:56 | 44.46694 | -104.98875 | 33932 ft | 423 kts | 257° |
| 2026-05-07 16:56 | 44.44179 | -105.10709 | 33938 ft | 423 kts | 257° |
| 2026-05-07 16:57 | 44.42490 | -105.18595 | 33937 ft | 423 kts | 257° |
| 2026-05-07 16:57 | 44.40801 | -105.26480 | 33953 ft | 423 kts | 257° |
| 2026-05-07 16:58 | 44.39105 | -105.34357 | 33971 ft | 423 kts | 257° |
| 2026-05-07 16:58 | 44.37404 | -105.42238 | 33982 ft | 423 kts | 257° |
| 2026-05-07 16:59 | 44.35696 | -105.50111 | 33985 ft | 423 kts | 257° |
| 2026-05-07 16:59 | 44.33574 | -105.57765 | 33963 ft | 429 kts | 248° |
| 2026-05-07 17:00 | 44.30925 | -105.65256 | 33964 ft | 430 kts | 249° |
| 2026-05-07 17:00 | 44.28292 | -105.72767 | 33938 ft | 431 kts | 248° |
| 2026-05-07 17:01 | 44.25646 | -105.80276 | 33944 ft | 431 kts | 248° |
| 2026-05-07 17:01 | 44.22986 | -105.87779 | 33922 ft | 432 kts | 249° |
| 2026-05-07 17:02 | 44.20314 | -105.95296 | 33929 ft | 433 kts | 249° |
| 2026-05-07 17:02 | 44.17634 | -106.02827 | 33931 ft | 434 kts | 249° |
| 2026-05-07 17:03 | 44.14948 | -106.10355 | 33926 ft | 434 kts | 249° |
| 2026-05-07 17:03 | 44.12249 | -106.17879 | 33904 ft | 435 kts | 250° |
| 2026-05-07 17:04 | 44.09562 | -106.25359 | 33909 ft | 435 kts | 250° |
| 2026-05-07 17:04 | 44.06842 | -106.32891 | 33925 ft | 436 kts | 250° |
| 2026-05-07 17:05 | 44.04122 | -106.40435 | 33919 ft | 436 kts | 250° |
| 2026-05-07 17:05 | 44.01396 | -106.47967 | 33887 ft | 436 kts | 250° |
| 2026-05-07 17:06 | 43.98659 | -106.55484 | 33900 ft | 436 kts | 251° |
| 2026-05-07 17:06 | 43.95931 | -106.62997 | 33901 ft | 436 kts | 251° |
| 2026-05-07 17:07 | 43.93193 | -106.70513 | 33913 ft | 436 kts | 251° |
| 2026-05-07 17:07 | 43.90443 | -106.78018 | 33929 ft | 437 kts | 251° |
| 2026-05-07 17:08 | 43.87684 | -106.85513 | 33954 ft | 436 kts | 252° |
| 2026-05-07 17:08 | 43.84926 | -106.92988 | 33968 ft | 435 kts | 252° |
| 2026-05-07 17:09 | 43.82168 | -107.00456 | 33991 ft | 435 kts | 252° |
| 2026-05-07 17:09 | 43.79777 | -107.07988 | 33994 ft | 426 kts | 258° |
| 2026-05-07 17:10 | 43.77728 | -107.15688 | 33979 ft | 426 kts | 259° |
| 2026-05-07 17:10 | 43.75662 | -107.23375 | 34003 ft | 426 kts | 259° |
| 2026-05-07 17:11 | 43.73586 | -107.31056 | 34010 ft | 426 kts | 259° |
| 2026-05-07 17:11 | 43.71506 | -107.38738 | 34025 ft | 426 kts | 259° |
| 2026-05-07 17:12 | 43.69421 | -107.46409 | 33994 ft | 426 kts | 259° |
| 2026-05-07 17:12 | 43.67352 | -107.54018 | 34011 ft | 426 kts | 259° |
| 2026-05-07 17:13 | 43.65260 | -107.61667 | 34014 ft | 426 kts | 258° |
| 2026-05-07 17:13 | 43.63160 | -107.69316 | 34010 ft | 426 kts | 258° |
| 2026-05-07 17:14 | 43.61061 | -107.76958 | 33973 ft | 426 kts | 258° |
| 2026-05-07 17:14 | 43.58959 | -107.84601 | 33988 ft | 426 kts | 258° |
| 2026-05-07 17:15 | 43.56848 | -107.92239 | 33967 ft | 426 kts | 258° |
| 2026-05-07 17:15 | 43.55071 | -107.98635 | 33967 ft | 426 kts | 258° |
| 2026-05-07 17:16 | 43.52598 | -108.07507 | 33978 ft | 426 kts | 258° |
| 2026-05-07 17:16 | 43.50819 | -108.13904 | 33982 ft | 426 kts | 258° |
| 2026-05-07 17:17 | 43.48701 | -108.21469 | 33975 ft | 426 kts | 258° |
| 2026-05-07 17:17 | 43.46554 | -108.29075 | 33976 ft | 426 kts | 258° |
| 2026-05-07 17:18 | 43.44417 | -108.36684 | 33963 ft | 426 kts | 258° |
| 2026-05-07 17:18 | 43.42281 | -108.44295 | 33922 ft | 426 kts | 258° |
| 2026-05-07 17:19 | 43.40138 | -108.51892 | 33947 ft | 426 kts | 257° |
| 2026-05-07 17:19 | 43.37993 | -108.59491 | 33953 ft | 426 kts | 257° |
| 2026-05-07 17:20 | 43.35834 | -108.67091 | 33956 ft | 427 kts | 257° |
| 2026-05-07 17:20 | 43.33663 | -108.74684 | 33952 ft | 427 kts | 257° |
| 2026-05-07 17:21 | 43.31489 | -108.82277 | 33936 ft | 427 kts | 257° |
| 2026-05-07 17:21 | 43.29319 | -108.89856 | 33945 ft | 426 kts | 257° |
| 2026-05-07 17:22 | 43.27149 | -108.97432 | 33953 ft | 426 kts | 257° |
| 2026-05-07 17:22 | 43.24975 | -109.04987 | 33964 ft | 426 kts | 257° |
| 2026-05-07 17:23 | 43.22793 | -109.12531 | 33946 ft | 426 kts | 257° |
| 2026-05-07 17:23 | 43.20600 | -109.20067 | 33962 ft | 425 kts | 257° |
| 2026-05-07 17:24 | 43.18420 | -109.27544 | 33993 ft | 425 kts | 257° |
| 2026-05-07 17:24 | 43.16229 | -109.35053 | 33998 ft | 425 kts | 257° |
| 2026-05-07 17:25 | 43.14037 | -109.42565 | 34024 ft | 424 kts | 257° |
| 2026-05-07 17:25 | 43.11839 | -109.50059 | 33981 ft | 425 kts | 256° |
| 2026-05-07 17:26 | 43.09623 | -109.57568 | 34016 ft | 426 kts | 256° |
| 2026-05-07 17:26 | 43.07400 | -109.65088 | 34039 ft | 427 kts | 256° |
| 2026-05-07 17:27 | 43.05174 | -109.72616 | 34051 ft | 427 kts | 256° |
| 2026-05-07 17:27 | 43.02947 | -109.80136 | 34006 ft | 427 kts | 256° |
| 2026-05-07 17:28 | 43.00700 | -109.87662 | 34020 ft | 427 kts | 256° |
| 2026-05-07 17:28 | 42.98442 | -109.95187 | 34021 ft | 428 kts | 256° |
| 2026-05-07 17:29 | 42.96186 | -110.02718 | 34043 ft | 429 kts | 256° |
| 2026-05-07 17:29 | 42.93925 | -110.10257 | 34036 ft | 429 kts | 256° |
| 2026-05-07 17:30 | 42.91659 | -110.17790 | 34008 ft | 429 kts | 256° |
| 2026-05-07 17:30 | 42.89385 | -110.25316 | 34014 ft | 429 kts | 256° |
| 2026-05-07 17:31 | 42.87101 | -110.32841 | 34035 ft | 429 kts | 256° |
| 2026-05-07 17:31 | 42.84808 | -110.40360 | 34039 ft | 430 kts | 256° |
| 2026-05-07 17:32 | 42.82536 | -110.47834 | 34002 ft | 429 kts | 256° |
| 2026-05-07 17:32 | 42.80238 | -110.55339 | 34017 ft | 430 kts | 255° |
| 2026-05-07 17:33 | 42.77935 | -110.62851 | 34077 ft | 430 kts | 255° |
| 2026-05-07 17:33 | 42.75625 | -110.70357 | 34105 ft | 430 kts | 255° |
| 2026-05-07 17:34 | 42.73313 | -110.77859 | 34129 ft | 430 kts | 256° |
| 2026-05-07 17:34 | 42.70995 | -110.85368 | 34108 ft | 430 kts | 255° |
| 2026-05-07 17:35 | 42.68670 | -110.92871 | 34120 ft | 431 kts | 255° |
| 2026-05-07 17:35 | 42.66329 | -111.00388 | 34140 ft | 431 kts | 255° |
| 2026-05-07 17:36 | 42.63986 | -111.07887 | 34129 ft | 431 kts | 255° |
| 2026-05-07 17:36 | 42.61635 | -111.15392 | 34059 ft | 432 kts | 255° |
| 2026-05-07 17:37 | 42.59279 | -111.22897 | 34051 ft | 433 kts | 255° |
| 2026-05-07 17:37 | 42.56932 | -111.30365 | 34046 ft | 433 kts | 255° |
| 2026-05-07 17:38 | 42.54568 | -111.37888 | 34037 ft | 433 kts | 255° |
| 2026-05-07 17:38 | 42.52188 | -111.45411 | 34045 ft | 434 kts | 254° |
| 2026-05-07 17:39 | 42.49792 | -111.52921 | 34047 ft | 434 kts | 254° |
| 2026-05-07 17:39 | 42.47399 | -111.60432 | 34047 ft | 434 kts | 254° |
| 2026-05-07 17:40 | 42.45004 | -111.67939 | 34048 ft | 434 kts | 254° |
| 2026-05-07 17:40 | 42.42605 | -111.75448 | 34048 ft | 434 kts | 254° |
| 2026-05-07 17:41 | 42.40218 | -111.82896 | 34026 ft | 434 kts | 254° |
| 2026-05-07 17:41 | 42.37808 | -111.90379 | 34039 ft | 434 kts | 254° |
| 2026-05-07 17:42 | 42.35390 | -111.97865 | 34045 ft | 434 kts | 254° |
| 2026-05-07 17:42 | 42.32975 | -112.05348 | 34047 ft | 434 kts | 254° |
| 2026-05-07 17:43 | 42.30555 | -112.12822 | 34041 ft | 434 kts | 253° |
| 2026-05-07 17:43 | 42.28118 | -112.20292 | 34011 ft | 435 kts | 253° |
| 2026-05-07 17:44 | 42.25669 | -112.27771 | 34013 ft | 435 kts | 253° |
| 2026-05-07 17:44 | 42.23221 | -112.35255 | 34020 ft | 436 kts | 253° |
| 2026-05-07 17:45 | 42.20766 | -112.42743 | 34031 ft | 436 kts | 253° |
| 2026-05-07 17:45 | 42.18262 | -112.50206 | 33999 ft | 438 kts | 252° |
| 2026-05-07 17:46 | 42.15628 | -112.57628 | 34017 ft | 439 kts | 251° |
| 2026-05-07 17:46 | 42.12981 | -112.64987 | 34022 ft | 439 kts | 251° |
| 2026-05-07 17:47 | 42.10330 | -112.72399 | 34014 ft | 439 kts | 251° |
| 2026-05-07 17:47 | 42.07694 | -112.79816 | 33993 ft | 439 kts | 251° |
| 2026-05-07 17:48 | 42.05049 | -112.87237 | 34009 ft | 439 kts | 251° |
| 2026-05-07 17:48 | 42.02397 | -112.94651 | 34015 ft | 440 kts | 251° |
| 2026-05-07 17:49 | 41.99745 | -113.02060 | 34218 ft | 439 kts | 251° |
| 2026-05-07 17:49 | 41.98417 | -113.05764 | 34460 ft | 439 kts | 251° |
| 2026-05-07 17:49 | 41.97104 | -113.09407 | 34680 ft | 439 kts | 251° |
| 2026-05-07 17:50 | 41.95756 | -113.13140 | 34883 ft | 438 kts | 251° |
| 2026-05-07 17:50 | 41.94426 | -113.16822 | 35102 ft | 438 kts | 251° |
| 2026-05-07 17:50 | 41.93113 | -113.20454 | 35317 ft | 438 kts | 251° |
| 2026-05-07 17:50 | 41.91780 | -113.24129 | 35544 ft | 437 kts | 251° |
| 2026-05-07 17:51 | 41.90446 | -113.27798 | 35774 ft | 437 kts | 251° |
| 2026-05-07 17:51 | 41.89115 | -113.31463 | 35950 ft | 437 kts | 251° |
| 2026-05-07 17:51 | 41.86454 | -113.38803 | 36004 ft | 438 kts | 251° |
| 2026-05-07 17:52 | 41.83784 | -113.46131 | 36012 ft | 437 kts | 251° |
| 2026-05-07 17:52 | 41.81102 | -113.53460 | 36019 ft | 438 kts | 251° |
| 2026-05-07 17:53 | 41.78420 | -113.60782 | 36018 ft | 438 kts | 251° |
| 2026-05-07 17:53 | 41.75739 | -113.68104 | 36027 ft | 438 kts | 250° |
| 2026-05-07 17:54 | 41.73047 | -113.75432 | 36014 ft | 439 kts | 250° |
| 2026-05-07 17:54 | 41.70334 | -113.82765 | 36038 ft | 440 kts | 250° |
| 2026-05-07 17:55 | 41.67614 | -113.90099 | 36035 ft | 440 kts | 250° |
| 2026-05-07 17:55 | 41.64904 | -113.97421 | 36042 ft | 439 kts | 250° |
| 2026-05-07 17:56 | 41.62198 | -114.04698 | 36028 ft | 440 kts | 250° |
| 2026-05-07 17:56 | 41.59454 | -114.12036 | 36021 ft | 441 kts | 250° |
| 2026-05-07 17:57 | 41.57170 | -114.18150 | 36011 ft | 442 kts | 250° |
| 2026-05-07 17:57 | 41.53965 | -114.26732 | 36023 ft | 442 kts | 250° |
| 2026-05-07 17:58 | 41.51207 | -114.34077 | 36025 ft | 443 kts | 249° |
| 2026-05-07 17:58 | 41.48439 | -114.41394 | 36008 ft | 443 kts | 249° |
| 2026-05-07 17:59 | 41.45670 | -114.48702 | 36017 ft | 444 kts | 249° |
| 2026-05-07 17:59 | 41.42888 | -114.56068 | 36032 ft | 444 kts | 249° |
| 2026-05-07 18:00 | 41.40101 | -114.63426 | 36035 ft | 444 kts | 249° |
| 2026-05-07 18:00 | 41.37325 | -114.70726 | 36044 ft | 444 kts | 249° |
| 2026-05-07 18:01 | 41.34558 | -114.78091 | 36048 ft | 443 kts | 250° |
| 2026-05-07 18:01 | 41.31978 | -114.85487 | 36046 ft | 442 kts | 251° |
| 2026-05-07 18:02 | 41.28143 | -114.96641 | 36047 ft | 443 kts | 251° |
| 2026-05-07 18:03 | 41.25968 | -115.02824 | 36030 ft | 443 kts | 250° |
| 2026-05-07 18:03 | 41.22988 | -115.11229 | 36035 ft | 443 kts | 250° |
| 2026-05-07 18:04 | 41.20796 | -115.17401 | 36035 ft | 443 kts | 250° |
| 2026-05-07 18:04 | 41.18158 | -115.24820 | 36048 ft | 444 kts | 250° |
| 2026-05-07 18:05 | 41.15523 | -115.32245 | 36044 ft | 444 kts | 250° |
| 2026-05-07 18:05 | 41.12901 | -115.39620 | 36023 ft | 444 kts | 250° |
| 2026-05-07 18:06 | 41.10247 | -115.47046 | 36018 ft | 445 kts | 250° |
| 2026-05-07 18:06 | 41.07590 | -115.54440 | 36054 ft | 446 kts | 249° |
| 2026-05-07 18:07 | 41.04914 | -115.61868 | 36088 ft | 446 kts | 249° |
| 2026-05-07 18:07 | 41.02233 | -115.69303 | 36101 ft | 446 kts | 249° |
| 2026-05-07 18:08 | 40.99567 | -115.76693 | 36128 ft | 447 kts | 249° |
| 2026-05-07 18:08 | 40.96869 | -115.84126 | 36149 ft | 448 kts | 249° |
| 2026-05-07 18:09 | 40.94179 | -115.91524 | 36157 ft | 448 kts | 249° |
| 2026-05-07 18:09 | 40.91474 | -115.98962 | 36131 ft | 448 kts | 249° |
| 2026-05-07 18:10 | 40.88782 | -116.06358 | 36123 ft | 448 kts | 249° |
| 2026-05-07 18:10 | 40.86077 | -116.13746 | 36108 ft | 448 kts | 249° |
| 2026-05-07 18:11 | 40.83347 | -116.21165 | 36091 ft | 448 kts | 249° |
| 2026-05-07 18:11 | 40.80633 | -116.28537 | 36061 ft | 448 kts | 249° |
| 2026-05-07 18:12 | 40.77890 | -116.35940 | 36065 ft | 448 kts | 248° |
| 2026-05-07 18:12 | 40.75160 | -116.43311 | 36065 ft | 448 kts | 249° |
| 2026-05-07 18:13 | 40.72428 | -116.50708 | 36087 ft | 448 kts | 248° |
| 2026-05-07 18:13 | 40.69691 | -116.58081 | 36096 ft | 448 kts | 248° |
| 2026-05-07 18:14 | 40.66935 | -116.65461 | 36131 ft | 448 kts | 248° |
| 2026-05-07 18:14 | 40.64194 | -116.72798 | 36167 ft | 448 kts | 248° |
| 2026-05-07 18:15 | 40.61425 | -116.80190 | 36183 ft | 449 kts | 248° |
| 2026-05-07 18:15 | 40.58671 | -116.87528 | 36175 ft | 449 kts | 248° |
| 2026-05-07 18:16 | 40.56171 | -116.95027 | 36179 ft | 445 kts | 255° |
| 2026-05-07 18:16 | 40.54174 | -117.02736 | 36165 ft | 445 kts | 255° |
| 2026-05-07 18:17 | 40.52176 | -117.10402 | 36137 ft | 445 kts | 255° |
| 2026-05-07 18:17 | 40.50163 | -117.18102 | 36102 ft | 445 kts | 255° |
| 2026-05-07 18:18 | 40.48141 | -117.25799 | 36063 ft | 446 kts | 255° |
| 2026-05-07 18:18 | 40.46258 | -117.32942 | 36068 ft | 446 kts | 255° |
| 2026-05-07 18:19 | 40.44227 | -117.40643 | 36074 ft | 446 kts | 255° |
| 2026-05-07 18:19 | 40.42187 | -117.48356 | 36061 ft | 446 kts | 254° |
| 2026-05-07 18:20 | 40.40155 | -117.56002 | 36064 ft | 447 kts | 254° |
| 2026-05-07 18:20 | 40.38155 | -117.63498 | 36074 ft | 447 kts | 254° |
| 2026-05-07 18:21 | 40.36110 | -117.71151 | 36081 ft | 447 kts | 254° |
| 2026-05-07 18:21 | 40.34039 | -117.78850 | 36077 ft | 448 kts | 254° |
| 2026-05-07 18:22 | 40.31970 | -117.86566 | 36080 ft | 448 kts | 254° |
| 2026-05-07 18:22 | 40.29898 | -117.94258 | 36080 ft | 447 kts | 254° |
| 2026-05-07 18:23 | 40.27812 | -118.01955 | 36080 ft | 447 kts | 253° |
| 2026-05-07 18:23 | 40.25735 | -118.09583 | 36070 ft | 447 kts | 253° |
| 2026-05-07 18:24 | 40.23645 | -118.17262 | 36073 ft | 448 kts | 253° |
| 2026-05-07 18:24 | 40.21553 | -118.24933 | 36065 ft | 448 kts | 253° |
| 2026-05-07 18:25 | 40.19451 | -118.32625 | 36079 ft | 448 kts | 253° |
| 2026-05-07 18:25 | 40.17353 | -118.40261 | 36067 ft | 448 kts | 253° |
| 2026-05-07 18:26 | 40.15236 | -118.47944 | 36068 ft | 449 kts | 253° |
| 2026-05-07 18:26 | 40.13112 | -118.55632 | 36069 ft | 449 kts | 253° |
| 2026-05-07 18:27 | 40.10936 | -118.63246 | 36072 ft | 449 kts | 251° |
| 2026-05-07 18:27 | 40.09799 | -118.67036 | 35888 ft | 446 kts | 251° |
| 2026-05-07 18:27 | 40.08654 | -118.70790 | 35644 ft | 444 kts | 251° |
| 2026-05-07 18:27 | 40.07508 | -118.74543 | 35480 ft | 444 kts | 251° |
| 2026-05-07 18:28 | 40.06366 | -118.78294 | 35227 ft | 444 kts | 251° |
| 2026-05-07 18:28 | 40.05224 | -118.82063 | 34972 ft | 445 kts | 251° |
| 2026-05-07 18:28 | 40.04101 | -118.85782 | 34725 ft | 445 kts | 251° |
| 2026-05-07 18:28 | 40.02966 | -118.89555 | 34476 ft | 446 kts | 251° |
| 2026-05-07 18:29 | 40.01826 | -118.93334 | 34231 ft | 447 kts | 251° |
| 2026-05-07 18:29 | 40.00693 | -118.97071 | 33960 ft | 447 kts | 251° |
| 2026-05-07 18:29 | 39.99541 | -119.00865 | 33681 ft | 448 kts | 251° |
| 2026-05-07 18:29 | 39.98384 | -119.04662 | 33412 ft | 449 kts | 250° |
| 2026-05-07 18:30 | 39.97229 | -119.08449 | 33146 ft | 450 kts | 251° |
| 2026-05-07 18:30 | 39.96071 | -119.12251 | 32880 ft | 451 kts | 251° |
| 2026-05-07 18:30 | 39.94926 | -119.16003 | 32637 ft | 451 kts | 251° |
| 2026-05-07 18:30 | 39.93757 | -119.19820 | 32376 ft | 452 kts | 250° |
| 2026-05-07 18:31 | 39.92588 | -119.23637 | 32133 ft | 453 kts | 250° |
| 2026-05-07 18:31 | 39.91421 | -119.27448 | 32019 ft | 453 kts | 250° |
| 2026-05-07 18:31 | 39.90244 | -119.31272 | 32054 ft | 454 kts | 250° |
| 2026-05-07 18:32 | 39.87910 | -119.38863 | 32060 ft | 454 kts | 250° |
| 2026-05-07 18:32 | 39.85550 | -119.46502 | 32059 ft | 454 kts | 250° |
| 2026-05-07 18:33 | 39.83189 | -119.54142 | 32087 ft | 454 kts | 250° |
| 2026-05-07 18:33 | 39.80835 | -119.61726 | 32132 ft | 454 kts | 250° |
| 2026-05-07 18:34 | 39.78463 | -119.69353 | 32170 ft | 454 kts | 250° |
| 2026-05-07 18:34 | 39.76091 | -119.76983 | 32212 ft | 455 kts | 250° |
| 2026-05-07 18:35 | 39.73726 | -119.84558 | 32227 ft | 455 kts | 250° |
| 2026-05-07 18:35 | 39.71329 | -119.92184 | 32232 ft | 454 kts | 250° |
| 2026-05-07 18:36 | 39.68945 | -119.99743 | 32231 ft | 454 kts | 250° |
| 2026-05-07 18:36 | 39.67739 | -120.03561 | 32078 ft | 454 kts | 250° |
| 2026-05-07 18:36 | 39.66541 | -120.07356 | 32081 ft | 454 kts | 250° |
| 2026-05-07 18:37 | 39.64151 | -120.14889 | 32086 ft | 454 kts | 250° |
| 2026-05-07 18:37 | 39.61752 | -120.22473 | 32099 ft | 454 kts | 250° |
| 2026-05-07 18:38 | 39.59351 | -120.30052 | 32105 ft | 453 kts | 250° |
| 2026-05-07 18:38 | 39.56937 | -120.37625 | 32098 ft | 453 kts | 250° |
| 2026-05-07 18:39 | 39.54527 | -120.45134 | 32104 ft | 453 kts | 250° |
| 2026-05-07 18:39 | 39.52105 | -120.52683 | 32101 ft | 453 kts | 250° |
| 2026-05-07 18:40 | 39.49696 | -120.60194 | 32103 ft | 453 kts | 250° |
| 2026-05-07 18:40 | 39.47329 | -120.67753 | 32079 ft | 452 kts | 256° |
| 2026-05-07 18:40 | 39.46864 | -120.71750 | 32066 ft | 447 kts | 273° |
| 2026-05-07 18:41 | 39.47216 | -120.75725 | 31905 ft | 445 kts | 282° |
| 2026-05-07 18:41 | 39.47810 | -120.79667 | 31656 ft | 445 kts | 283° |
| 2026-05-07 18:41 | 39.48404 | -120.83559 | 31408 ft | 443 kts | 283° |
| 2026-05-07 18:41 | 39.48990 | -120.87493 | 31180 ft | 442 kts | 283° |
| 2026-05-07 18:42 | 39.49574 | -120.91371 | 31069 ft | 443 kts | 283° |
| 2026-05-07 18:42 | 39.50803 | -120.99240 | 31116 ft | 447 kts | 283° |
| 2026-05-07 18:43 | 39.52084 | -121.07147 | 31119 ft | 449 kts | 283° |
| 2026-05-07 18:43 | 39.53374 | -121.15058 | 31123 ft | 448 kts | 283° |
| 2026-05-07 18:44 | 39.54659 | -121.22909 | 31143 ft | 447 kts | 283° |
| 2026-05-07 18:44 | 39.55971 | -121.30832 | 31157 ft | 449 kts | 283° |
| 2026-05-07 18:45 | 39.57279 | -121.38702 | 31160 ft | 448 kts | 283° |
| 2026-05-07 18:45 | 39.58552 | -121.46609 | 31159 ft | 448 kts | 278° |
| 2026-05-07 18:45 | 39.58583 | -121.50645 | 31166 ft | 450 kts | 265° |
| 2026-05-07 18:46 | 39.58194 | -121.54629 | 31163 ft | 451 kts | 263° |
| 2026-05-07 18:46 | 39.57357 | -121.62761 | 31165 ft | 458 kts | 263° |
| 2026-05-07 18:47 | 39.56515 | -121.70950 | 31166 ft | 459 kts | 263° |
| 2026-05-07 18:47 | 39.55672 | -121.79152 | 31164 ft | 459 kts | 263° |
| 2026-05-07 18:48 | 39.54854 | -121.87357 | 31159 ft | 459 kts | 263° |
| 2026-05-07 18:48 | 39.54055 | -121.95561 | 31152 ft | 459 kts | 263° |
| 2026-05-07 18:49 | 39.53255 | -122.03773 | 31148 ft | 459 kts | 263° |
| 2026-05-07 18:49 | 39.52454 | -122.11975 | 31147 ft | 459 kts | 263° |
| 2026-05-07 18:50 | 39.50955 | -122.19947 | 31138 ft | 458 kts | 244° |
| 2026-05-07 18:50 | 39.48084 | -122.27318 | 31135 ft | 458 kts | 243° |
| 2026-05-07 18:51 | 39.45195 | -122.34623 | 31131 ft | 459 kts | 243° |
| 2026-05-07 18:51 | 39.42317 | -122.41990 | 31132 ft | 458 kts | 243° |
| 2026-05-07 18:52 | 39.39458 | -122.49362 | 31129 ft | 458 kts | 243° |
| 2026-05-07 18:52 | 39.37080 | -122.55496 | 31129 ft | 458 kts | 243° |
| 2026-05-07 18:53 | 39.34226 | -122.62862 | 31123 ft | 458 kts | 243° |
| 2026-05-07 18:53 | 39.31361 | -122.70209 | 31124 ft | 458 kts | 243° |
| 2026-05-07 18:54 | 39.28492 | -122.77546 | 31125 ft | 458 kts | 243° |
| 2026-05-07 18:54 | 39.25431 | -122.84739 | 31039 ft | 454 kts | 231° |
| 2026-05-07 18:54 | 39.23263 | -122.87668 | 30801 ft | 450 kts | 224° |
| 2026-05-07 18:55 | 39.20983 | -122.90426 | 30569 ft | 450 kts | 223° |
| 2026-05-07 18:55 | 39.18680 | -122.93164 | 30335 ft | 451 kts | 223° |
| 2026-05-07 18:55 | 39.16369 | -122.95899 | 30093 ft | 452 kts | 223° |
| 2026-05-07 18:55 | 39.14080 | -122.98610 | 29816 ft | 452 kts | 223° |
| 2026-05-07 18:56 | 39.11758 | -123.01358 | 29546 ft | 453 kts | 223° |
| 2026-05-07 18:56 | 39.09432 | -123.04107 | 29269 ft | 454 kts | 223° |
| 2026-05-07 18:56 | 39.06921 | -123.06552 | 28993 ft | 454 kts | 210° |
| 2026-05-07 18:56 | 39.03989 | -123.08087 | 28727 ft | 456 kts | 194° |
| 2026-05-07 18:57 | 39.00838 | -123.08563 | 28461 ft | 458 kts | 179° |
| 2026-05-07 18:57 | 38.97694 | -123.07915 | 28195 ft | 461 kts | 163° |
| 2026-05-07 18:57 | 38.94624 | -123.06645 | 27932 ft | 463 kts | 162° |
| 2026-05-07 18:57 | 38.91558 | -123.05359 | 27677 ft | 463 kts | 162° |
| 2026-05-07 18:58 | 38.88502 | -123.04077 | 27419 ft | 461 kts | 162° |
| 2026-05-07 18:58 | 38.85459 | -123.02801 | 27164 ft | 459 kts | 162° |
| 2026-05-07 18:58 | 38.82460 | -123.01544 | 26914 ft | 458 kts | 162° |
| 2026-05-07 18:58 | 38.79428 | -123.00276 | 26664 ft | 457 kts | 162° |
| 2026-05-07 18:59 | 38.76409 | -122.99015 | 26417 ft | 456 kts | 163° |
| 2026-05-07 18:59 | 38.73402 | -122.97767 | 26182 ft | 454 kts | 163° |
| 2026-05-07 18:59 | 38.70399 | -122.96521 | 25940 ft | 452 kts | 163° |
| 2026-05-07 18:59 | 38.67410 | -122.95277 | 25706 ft | 451 kts | 162° |
| 2026-05-07 19:00 | 38.64436 | -122.94039 | 25482 ft | 449 kts | 163° |
| 2026-05-07 19:00 | 38.61466 | -122.92806 | 25251 ft | 448 kts | 163° |
| 2026-05-07 19:00 | 38.58500 | -122.91574 | 25020 ft | 447 kts | 163° |
| 2026-05-07 19:00 | 38.55545 | -122.90353 | 24790 ft | 445 kts | 163° |
| 2026-05-07 19:01 | 38.52596 | -122.89136 | 24563 ft | 444 kts | 163° |
| 2026-05-07 19:01 | 38.49665 | -122.87928 | 24343 ft | 441 kts | 163° |
| 2026-05-07 19:01 | 38.46782 | -122.86740 | 24110 ft | 440 kts | 162° |
| 2026-05-07 19:01 | 38.43838 | -122.85525 | 23883 ft | 439 kts | 162° |
| 2026-05-07 19:02 | 38.40950 | -122.84332 | 23441 ft | 433 kts | 162° |
| 2026-05-07 19:02 | 38.38095 | -122.83152 | 22862 ft | 429 kts | 162° |
| 2026-05-07 19:02 | 38.35271 | -122.81992 | 22311 ft | 424 kts | 162° |
| 2026-05-07 19:02 | 38.32509 | -122.80860 | 21754 ft | 421 kts | 162° |
| 2026-05-07 19:03 | 38.29695 | -122.79707 | 21231 ft | 418 kts | 162° |
| 2026-05-07 19:03 | 38.26980 | -122.78595 | 20876 ft | 411 kts | 162° |
| 2026-05-07 19:03 | 38.24300 | -122.77493 | 20738 ft | 399 kts | 162° |
| 2026-05-07 19:03 | 38.21678 | -122.76443 | 20447 ft | 391 kts | 164° |
| 2026-05-07 19:04 | 38.19062 | -122.75555 | 20066 ft | 388 kts | 167° |
| 2026-05-07 19:04 | 38.16440 | -122.74785 | 19604 ft | 385 kts | 168° |
| 2026-05-07 19:04 | 38.13816 | -122.74077 | 19155 ft | 383 kts | 169° |
| 2026-05-07 19:04 | 38.11212 | -122.73390 | 18685 ft | 381 kts | 169° |
| 2026-05-07 19:05 | 38.08621 | -122.72691 | 18200 ft | 379 kts | 168° |
| 2026-05-07 19:05 | 38.06061 | -122.71975 | 17802 ft | 374 kts | 168° |
| 2026-05-07 19:05 | 38.03511 | -122.71243 | 17155 ft | 376 kts | 168° |
| 2026-05-07 19:05 | 38.00975 | -122.70504 | 16699 ft | 372 kts | 168° |
| 2026-05-07 19:06 | 37.98460 | -122.69768 | 16240 ft | 369 kts | 168° |
| 2026-05-07 19:06 | 37.93526 | -122.68330 | 15342 ft | 363 kts | 168° |
| 2026-05-07 19:06 | 37.91105 | -122.67487 | 14900 ft | 360 kts | 160° |
| 2026-05-07 19:07 | 37.88880 | -122.66054 | 14453 ft | 359 kts | 147° |
| 2026-05-07 19:07 | 37.86928 | -122.64097 | 14184 ft | 359 kts | 141° |
| 2026-05-07 19:07 | 37.85020 | -122.62063 | 13715 ft | 358 kts | 142° |
| 2026-05-07 19:07 | 37.83116 | -122.60044 | 13192 ft | 356 kts | 141° |
| 2026-05-07 19:08 | 37.81221 | -122.58041 | 12541 ft | 356 kts | 141° |
| 2026-05-07 19:08 | 37.79324 | -122.56040 | 11824 ft | 349 kts | 142° |
| 2026-05-07 19:08 | 37.77489 | -122.54103 | 11236 ft | 343 kts | 142° |
| 2026-05-07 19:08 | 37.75678 | -122.52186 | 11044 ft | 342 kts | 142° |
| 2026-05-07 19:09 | 37.73854 | -122.50255 | 10991 ft | 342 kts | 142° |
| 2026-05-07 19:09 | 37.72028 | -122.48323 | 11000 ft | 343 kts | 141° |
| 2026-05-07 19:09 | 37.70203 | -122.46386 | 11001 ft | 343 kts | 141° |
| 2026-05-07 19:09 | 37.68378 | -122.44447 | 11001 ft | 343 kts | 141° |
| 2026-05-07 19:10 | 37.66554 | -122.42504 | 11002 ft | 343 kts | 141° |
| 2026-05-07 19:10 | 37.64732 | -122.40564 | 11001 ft | 343 kts | 141° |
| 2026-05-07 19:10 | 37.62917 | -122.38630 | 10743 ft | 340 kts | 141° |
| 2026-05-07 19:10 | 37.61049 | -122.36845 | 10278 ft | 330 kts | 149° |
| 2026-05-07 19:11 | 37.59126 | -122.35432 | 9792 ft | 311 kts | 154° |
| 2026-05-07 19:11 | 37.57246 | -122.34236 | 9283 ft | 296 kts | 156° |
| 2026-05-07 19:11 | 37.55411 | -122.33136 | 8781 ft | 289 kts | 156° |
| 2026-05-07 19:11 | 37.53619 | -122.32062 | 8227 ft | 285 kts | 156° |
| 2026-05-07 19:12 | 37.51847 | -122.30972 | 7631 ft | 282 kts | 156° |
| 2026-05-07 19:12 | 37.50091 | -122.29867 | 7170 ft | 282 kts | 155° |
| 2026-05-07 19:12 | 37.48347 | -122.28754 | 6848 ft | 281 kts | 155° |
| 2026-05-07 19:12 | 37.46613 | -122.27637 | 6509 ft | 279 kts | 153° |
| 2026-05-07 19:13 | 37.45149 | -122.26088 | 6146 ft | 281 kts | 129° |
| 2026-05-07 19:13 | 37.44055 | -122.24047 | 5756 ft | 282 kts | 123° |
| 2026-05-07 19:13 | 37.43026 | -122.21944 | 5424 ft | 281 kts | 123° |
| 2026-05-07 19:13 | 37.42016 | -122.19867 | 5068 ft | 274 kts | 122° |
| 2026-05-07 19:14 | 37.41030 | -122.17853 | 4723 ft | 267 kts | 119° |
| 2026-05-07 19:14 | 37.40522 | -122.15684 | 4385 ft | 252 kts | 89° |
| 2026-05-07 19:14 | 37.40889 | -122.13590 | 4145 ft | 247 kts | 66° |
| 2026-05-07 19:14 | 37.41585 | -122.11655 | 3925 ft | 235 kts | 63° |
| 2026-05-07 19:15 | 37.42291 | -122.09834 | 3748 ft | 230 kts | 63° |
| 2026-05-07 19:15 | 37.43044 | -122.08076 | 3617 ft | 227 kts | 50° |
| 2026-05-07 19:15 | 37.44266 | -122.06935 | 3530 ft | 212 kts | 17° |
| 2026-05-07 19:15 | 37.45652 | -122.06871 | 3440 ft | 197 kts | 348° |
| 2026-05-07 19:16 | 37.46970 | -122.07277 | 3341 ft | 195 kts | 343° |
| 2026-05-07 19:16 | 37.48268 | -122.07748 | 3240 ft | 192 kts | 340° |
| 2026-05-07 19:16 | 37.49416 | -122.08557 | 3144 ft | 189 kts | 318° |
| 2026-05-07 19:16 | 37.50214 | -122.09848 | 3065 ft | 187 kts | 297° |
| 2026-05-07 19:17 | 37.50825 | -122.11299 | 3000 ft | 187 kts | 297° |
| 2026-05-07 19:17 | 37.51439 | -122.12750 | 3002 ft | 187 kts | 297° |
| 2026-05-07 19:17 | 37.52053 | -122.14201 | 3005 ft | 188 kts | 297° |
| 2026-05-07 19:17 | 37.52665 | -122.15648 | 3002 ft | 188 kts | 297° |
| 2026-05-07 19:18 | 37.53272 | -122.17085 | 3012 ft | 188 kts | 297° |
| 2026-05-07 19:18 | 37.53886 | -122.18539 | 2901 ft | 188 kts | 297° |
| 2026-05-07 19:18 | 37.54499 | -122.19990 | 2712 ft | 187 kts | 297° |
| 2026-05-07 19:18 | 37.55104 | -122.21423 | 2477 ft | 181 kts | 297° |
| 2026-05-07 19:19 | 37.55680 | -122.22788 | 2258 ft | 172 kts | 296° |
| 2026-05-07 19:19 | 37.56223 | -122.24074 | 2063 ft | 161 kts | 297° |
| 2026-05-07 19:19 | 37.56743 | -122.25308 | 1859 ft | 154 kts | 296° |
| 2026-05-07 19:19 | 37.57230 | -122.26465 | 1661 ft | 147 kts | 296° |
| 2026-05-07 19:20 | 37.57702 | -122.27584 | 1467 ft | 143 kts | 296° |
| 2026-05-07 19:20 | 37.58163 | -122.28681 | 1290 ft | 143 kts | 297° |
| 2026-05-07 19:20 | 37.58629 | -122.29776 | 1088 ft | 140 kts | 295° |
| 2026-05-07 19:20 | 37.59086 | -122.30862 | 883 ft | 140 kts | 295° |
| 2026-05-07 19:21 | 37.59536 | -122.31937 | 718 ft | 138 kts | 297° |
| 2026-05-07 19:21 | 37.59978 | -122.33001 | 531 ft | 136 kts | 298° |
| 2026-05-07 19:21 | 37.60418 | -122.34051 | 369 ft | 136 kts | 300° |
| 2026-05-07 19:21 | 37.60861 | -122.35101 | 204 ft | 135 kts | 300° |
| 2026-05-07 19:22 | 37.61303 | -122.36150 | 45 ft | 135 kts | 299° |
| 2026-05-07 19:22 | 37.61697 | -122.37081 | 24 ft | 99 kts | 297° |
| 2026-05-07 19:22 | 37.61930 | -122.37636 | 22 ft | 52 kts | 298° |
| 2026-05-07 19:22 | 37.62055 | -122.37942 | 24 ft | 33 kts | 297° |
| 2026-05-07 19:23 | 37.62131 | -122.38124 | 23 ft | 16 kts | 298° |
| 2026-05-07 19:23 | 37.62145 | -122.38229 | 22 ft | 11 kts | 236° |
| 2026-05-07 19:23 | 37.62103 | -122.38254 | 22 ft | 4 kts | 199° |
| 2026-05-07 19:23 | 37.62063 | -122.38247 | 24 ft | 8 kts | 143° |
| 2026-05-07 19:24 | 37.62033 | -122.38185 | 24 ft | 9 kts | 118° |
| 2026-05-07 19:24 | 37.62001 | -122.38109 | 22 ft | 11 kts | 118° |
| 2026-05-07 19:24 | 37.61956 | -122.38009 | 22 ft | 14 kts | 123° |
| 2026-05-07 19:24 | 37.61885 | -122.37923 | 22 ft | 15 kts | 147° |
| 2026-05-07 19:25 | 37.61823 | -122.37847 | 22 ft | 13 kts | 115° |
| 2026-05-07 19:25 | 37.61789 | -122.37740 | 22 ft | 11 kts | 111° |
| 2026-05-07 19:25 | 37.61766 | -122.37664 | 22 ft | 12 kts | 111° |
| 2026-05-07 19:25 | 37.61728 | -122.37541 | 23 ft | 16 kts | 111° |
| 2026-05-07 19:26 | 37.61690 | -122.37446 | 22 ft | 10 kts | 128° |
| 2026-05-07 19:26 | 37.61622 | -122.37449 | 22 ft | 13 kts | 208° |
| 2026-05-07 19:26 | 37.61512 | -122.37524 | 23 ft | 23 kts | 207° |
| 2026-05-07 19:26 | 37.61361 | -122.37625 | 25 ft | 25 kts | 207° |
| 2026-05-07 19:27 | 37.61204 | -122.37728 | 22 ft | 26 kts | 208° |
| 2026-05-07 19:27 | 37.61043 | -122.37835 | 22 ft | 27 kts | 207° |
| 2026-05-07 19:27 | 37.60885 | -122.37941 | 22 ft | 22 kts | 208° |
| 2026-05-07 19:27 | 37.60813 | -122.37993 | 24 ft | 8 kts | 221° |
| 2026-05-07 19:28 | 37.60817 | -122.38059 | 24 ft | 10 kts | 302° |
| 2026-05-07 19:28 | 37.60856 | -122.38145 | 23 ft | 14 kts | 297° |
| 2026-05-07 19:28 | 37.60876 | -122.38265 | 22 ft | 13 kts | 276° |
| 2026-05-07 19:28 | 37.60915 | -122.38360 | 22 ft | 12 kts | 305° |
| 2026-05-07 19:29 | 37.60961 | -122.38426 | 22 ft | 6 kts | 339° |
| 2026-05-07 19:29 | 37.60969 | -122.38428 | 22 ft | 1 kts | 349° |
| 2026-05-07 19:29 | 37.60997 | -122.38436 | 22 ft | 7 kts | 344° |
| 2026-05-07 19:29 | 37.61031 | -122.38473 | 23 ft | 6 kts | 305° |
| 2026-05-07 19:30 | 37.61052 | -122.38510 | 22 ft | 4 kts | 306° |
| 2026-05-07 19:30 | 37.61063 | -122.38528 | 22 ft | 1 kts | 307° |
| 2026-05-07 19:30 | 37.61065 | -122.38532 | 22 ft | 0 kts | 307° |